<?xml version="1.0" encoding="UTF-8" standalone="no" ?>
<gpx xmlns="http://www.topografix.com/GPX/1/1" xmlns:xsi="http://www.w3.org/2001/XMLSchema-instance" xsi:schemaLocation="http://www.topografix.com/GPX/1/1 http://www.topografix.com/GPX/1/1/gpx.xsd" version="1.1" creator="VisuGPX - https://www.visugpx.com">
  <metadata>
    <name>Pommiers-Montverdun</name>
    <desc><![CDATA[Chemin de Compostelle 2016 : Pommiers-Montverdun]]></desc>
  </metadata>
  <trk>
    <name><![CDATA[31 Pommiers - Montverdun ]]></name>
    <trkseg>
      <trkpt lat="45.82427" lon="4.06785">
        <ele>338</ele>
        <time>2016-04-22T06:22:44Z</time>
      </trkpt>
      <trkpt lat="45.82422" lon="4.06784">
        <ele>338</ele>
        <time>2016-04-22T06:22:53Z</time>
      </trkpt>
      <trkpt lat="45.82413" lon="4.06778">
        <ele>337</ele>
        <time>2016-04-22T06:23:00Z</time>
      </trkpt>
      <trkpt lat="45.82404" lon="4.06786">
        <ele>338</ele>
        <time>2016-04-22T06:23:09Z</time>
      </trkpt>
      <trkpt lat="45.824" lon="4.0679">
        <ele>339</ele>
        <time>2016-04-22T06:23:13Z</time>
      </trkpt>
      <trkpt lat="45.82388" lon="4.06803">
        <ele>338</ele>
        <time>2016-04-22T06:23:24Z</time>
      </trkpt>
      <trkpt lat="45.82354" lon="4.0683">
        <ele>340</ele>
        <time>2016-04-22T06:23:57Z</time>
      </trkpt>
      <trkpt lat="45.82323" lon="4.06854">
        <ele>341</ele>
        <time>2016-04-22T06:24:29Z</time>
      </trkpt>
      <trkpt lat="45.82291" lon="4.06878">
        <ele>341</ele>
        <time>2016-04-22T06:25:02Z</time>
      </trkpt>
      <trkpt lat="45.82254" lon="4.06896">
        <ele>340</ele>
        <time>2016-04-22T06:25:35Z</time>
      </trkpt>
      <trkpt lat="45.82236" lon="4.06892">
        <ele>341</ele>
        <time>2016-04-22T06:25:53Z</time>
      </trkpt>
      <trkpt lat="45.82232" lon="4.06893">
        <ele>342</ele>
        <time>2016-04-22T06:26:05Z</time>
      </trkpt>
      <trkpt lat="45.82192" lon="4.06888">
        <ele>341</ele>
        <time>2016-04-22T06:26:37Z</time>
      </trkpt>
      <trkpt lat="45.82182" lon="4.06886">
        <ele>341</ele>
        <time>2016-04-22T06:26:45Z</time>
      </trkpt>
      <trkpt lat="45.82141" lon="4.06885">
        <ele>341</ele>
        <time>2016-04-22T06:27:18Z</time>
      </trkpt>
      <trkpt lat="45.82136" lon="4.06885">
        <ele>341</ele>
        <time>2016-04-22T06:27:22Z</time>
      </trkpt>
      <trkpt lat="45.82096" lon="4.06884">
        <ele>342</ele>
        <time>2016-04-22T06:27:54Z</time>
      </trkpt>
      <trkpt lat="45.82068" lon="4.06881">
        <ele>343</ele>
        <time>2016-04-22T06:28:27Z</time>
      </trkpt>
      <trkpt lat="45.8205" lon="4.06886">
        <ele>344</ele>
        <time>2016-04-22T06:28:43Z</time>
      </trkpt>
      <trkpt lat="45.82035" lon="4.06916">
        <ele>344</ele>
        <time>2016-04-22T06:29:03Z</time>
      </trkpt>
      <trkpt lat="45.82018" lon="4.06968">
        <ele>344</ele>
        <time>2016-04-22T06:29:37Z</time>
      </trkpt>
      <trkpt lat="45.8201" lon="4.06985">
        <ele>344</ele>
        <time>2016-04-22T06:29:50Z</time>
      </trkpt>
      <trkpt lat="45.81975" lon="4.07011">
        <ele>344</ele>
        <time>2016-04-22T06:30:24Z</time>
      </trkpt>
      <trkpt lat="45.81939" lon="4.07039">
        <ele>344</ele>
        <time>2016-04-22T06:30:58Z</time>
      </trkpt>
      <trkpt lat="45.81905" lon="4.07066">
        <ele>344</ele>
        <time>2016-04-22T06:31:30Z</time>
      </trkpt>
      <trkpt lat="45.8187" lon="4.07093">
        <ele>344</ele>
        <time>2016-04-22T06:32:02Z</time>
      </trkpt>
      <trkpt lat="45.81866" lon="4.07096">
        <ele>344</ele>
        <time>2016-04-22T06:32:06Z</time>
      </trkpt>
      <trkpt lat="45.81831" lon="4.07122">
        <ele>344</ele>
        <time>2016-04-22T06:32:38Z</time>
      </trkpt>
      <trkpt lat="45.81809" lon="4.0714">
        <ele>344</ele>
        <time>2016-04-22T06:32:58Z</time>
      </trkpt>
      <trkpt lat="45.81781" lon="4.0716">
        <ele>345</ele>
        <time>2016-04-22T06:33:26Z</time>
      </trkpt>
      <trkpt lat="45.81776" lon="4.07163">
        <ele>344</ele>
        <time>2016-04-22T06:33:31Z</time>
      </trkpt>
      <trkpt lat="45.81767" lon="4.0717">
        <ele>344</ele>
        <time>2016-04-22T06:33:39Z</time>
      </trkpt>
      <trkpt lat="45.81763" lon="4.07174">
        <ele>344</ele>
        <time>2016-04-22T06:33:43Z</time>
      </trkpt>
      <trkpt lat="45.81731" lon="4.07197">
        <ele>345</ele>
        <time>2016-04-22T06:34:15Z</time>
      </trkpt>
      <trkpt lat="45.81701" lon="4.0722">
        <ele>345</ele>
        <time>2016-04-22T06:34:45Z</time>
      </trkpt>
      <trkpt lat="45.81697" lon="4.07224">
        <ele>346</ele>
        <time>2016-04-22T06:34:49Z</time>
      </trkpt>
      <trkpt lat="45.81663" lon="4.07251">
        <ele>346</ele>
        <time>2016-04-22T06:35:22Z</time>
      </trkpt>
      <trkpt lat="45.81651" lon="4.07261">
        <ele>346</ele>
        <time>2016-04-22T06:35:35Z</time>
      </trkpt>
      <trkpt lat="45.81647" lon="4.07264">
        <ele>347</ele>
        <time>2016-04-22T06:35:39Z</time>
      </trkpt>
      <trkpt lat="45.81615" lon="4.0729">
        <ele>348</ele>
        <time>2016-04-22T06:36:09Z</time>
      </trkpt>
      <trkpt lat="45.81593" lon="4.07307">
        <ele>349</ele>
        <time>2016-04-22T06:36:33Z</time>
      </trkpt>
      <trkpt lat="45.81588" lon="4.07309">
        <ele>348</ele>
        <time>2016-04-22T06:36:39Z</time>
      </trkpt>
      <trkpt lat="45.81584" lon="4.07312">
        <ele>348</ele>
        <time>2016-04-22T06:36:44Z</time>
      </trkpt>
      <trkpt lat="45.81549" lon="4.07338">
        <ele>351</ele>
        <time>2016-04-22T06:37:17Z</time>
      </trkpt>
      <trkpt lat="45.81514" lon="4.07365">
        <ele>352</ele>
        <time>2016-04-22T06:37:51Z</time>
      </trkpt>
      <trkpt lat="45.8148" lon="4.07392">
        <ele>352</ele>
        <time>2016-04-22T06:38:25Z</time>
      </trkpt>
      <trkpt lat="45.81451" lon="4.07418">
        <ele>353</ele>
        <time>2016-04-22T06:38:56Z</time>
      </trkpt>
      <trkpt lat="45.81419" lon="4.07439">
        <ele>354</ele>
        <time>2016-04-22T06:39:31Z</time>
      </trkpt>
      <trkpt lat="45.81389" lon="4.07464">
        <ele>354</ele>
        <time>2016-04-22T06:40:01Z</time>
      </trkpt>
      <trkpt lat="45.81383" lon="4.07464">
        <ele>354</ele>
        <time>2016-04-22T06:40:06Z</time>
      </trkpt>
      <trkpt lat="45.8138" lon="4.07457">
        <ele>353</ele>
        <time>2016-04-22T06:40:10Z</time>
      </trkpt>
      <trkpt lat="45.81373" lon="4.074">
        <ele>350</ele>
        <time>2016-04-22T06:40:40Z</time>
      </trkpt>
      <trkpt lat="45.81367" lon="4.07372">
        <ele>349</ele>
        <time>2016-04-22T06:40:56Z</time>
      </trkpt>
      <trkpt lat="45.81361" lon="4.0736">
        <ele>348</ele>
        <time>2016-04-22T06:41:07Z</time>
      </trkpt>
      <trkpt lat="45.81338" lon="4.07324">
        <ele>348</ele>
        <time>2016-04-22T06:41:38Z</time>
      </trkpt>
      <trkpt lat="45.81316" lon="4.07277">
        <ele>349</ele>
        <time>2016-04-22T06:42:12Z</time>
      </trkpt>
      <trkpt lat="45.81298" lon="4.07232">
        <ele>348</ele>
        <time>2016-04-22T06:42:44Z</time>
      </trkpt>
      <trkpt lat="45.81288" lon="4.07209">
        <ele>349</ele>
        <time>2016-04-22T06:43:00Z</time>
      </trkpt>
      <trkpt lat="45.81282" lon="4.07198">
        <ele>350</ele>
        <time>2016-04-22T06:43:08Z</time>
      </trkpt>
      <trkpt lat="45.81253" lon="4.07164">
        <ele>350</ele>
        <time>2016-04-22T06:43:40Z</time>
      </trkpt>
      <trkpt lat="45.81218" lon="4.07138">
        <ele>351</ele>
        <time>2016-04-22T06:44:12Z</time>
      </trkpt>
      <trkpt lat="45.81186" lon="4.07107">
        <ele>351</ele>
        <time>2016-04-22T06:44:45Z</time>
      </trkpt>
      <trkpt lat="45.81183" lon="4.07103">
        <ele>352</ele>
        <time>2016-04-22T06:44:49Z</time>
      </trkpt>
      <trkpt lat="45.81153" lon="4.07066">
        <ele>352</ele>
        <time>2016-04-22T06:45:24Z</time>
      </trkpt>
      <trkpt lat="45.81141" lon="4.07053">
        <ele>352</ele>
        <time>2016-04-22T06:45:37Z</time>
      </trkpt>
      <trkpt lat="45.81133" lon="4.07044">
        <ele>352</ele>
        <time>2016-04-22T06:45:45Z</time>
      </trkpt>
      <trkpt lat="45.81105" lon="4.07012">
        <ele>353</ele>
        <time>2016-04-22T06:46:16Z</time>
      </trkpt>
      <trkpt lat="45.81073" lon="4.06978">
        <ele>354</ele>
        <time>2016-04-22T06:46:51Z</time>
      </trkpt>
      <trkpt lat="45.81047" lon="4.06943">
        <ele>355</ele>
        <time>2016-04-22T06:47:22Z</time>
      </trkpt>
      <trkpt lat="45.81039" lon="4.06935">
        <ele>355</ele>
        <time>2016-04-22T06:47:31Z</time>
      </trkpt>
      <trkpt lat="45.81011" lon="4.06901">
        <ele>354</ele>
        <time>2016-04-22T06:48:02Z</time>
      </trkpt>
      <trkpt lat="45.80983" lon="4.06872">
        <ele>355</ele>
        <time>2016-04-22T06:48:33Z</time>
      </trkpt>
      <trkpt lat="45.80953" lon="4.06847">
        <ele>355</ele>
        <time>2016-04-22T06:49:04Z</time>
      </trkpt>
      <trkpt lat="45.80917" lon="4.06822">
        <ele>355</ele>
        <time>2016-04-22T06:49:37Z</time>
      </trkpt>
      <trkpt lat="45.80886" lon="4.06801">
        <ele>355</ele>
        <time>2016-04-22T06:50:09Z</time>
      </trkpt>
      <trkpt lat="45.80881" lon="4.06798">
        <ele>355</ele>
        <time>2016-04-22T06:50:14Z</time>
      </trkpt>
      <trkpt lat="45.80876" lon="4.06792">
        <ele>354</ele>
        <time>2016-04-22T06:50:30Z</time>
      </trkpt>
      <trkpt lat="45.80845" lon="4.0676">
        <ele>354</ele>
        <time>2016-04-22T06:51:02Z</time>
      </trkpt>
      <trkpt lat="45.80824" lon="4.06736">
        <ele>354</ele>
        <time>2016-04-22T06:51:30Z</time>
      </trkpt>
      <trkpt lat="45.80821" lon="4.0673">
        <ele>353</ele>
        <time>2016-04-22T06:51:57Z</time>
      </trkpt>
      <trkpt lat="45.80817" lon="4.06725">
        <ele>354</ele>
        <time>2016-04-22T06:52:01Z</time>
      </trkpt>
      <trkpt lat="45.80813" lon="4.06721">
        <ele>353</ele>
        <time>2016-04-22T06:52:05Z</time>
      </trkpt>
      <trkpt lat="45.80809" lon="4.06716">
        <ele>353</ele>
        <time>2016-04-22T06:52:09Z</time>
      </trkpt>
      <trkpt lat="45.80801" lon="4.06708">
        <ele>352</ele>
        <time>2016-04-22T06:52:17Z</time>
      </trkpt>
      <trkpt lat="45.80797" lon="4.06703">
        <ele>353</ele>
        <time>2016-04-22T06:52:21Z</time>
      </trkpt>
      <trkpt lat="45.80791" lon="4.06692">
        <ele>353</ele>
        <time>2016-04-22T06:52:30Z</time>
      </trkpt>
      <trkpt lat="45.80785" lon="4.0668">
        <ele>352</ele>
        <time>2016-04-22T06:52:38Z</time>
      </trkpt>
      <trkpt lat="45.80778" lon="4.0667">
        <ele>352</ele>
        <time>2016-04-22T06:52:46Z</time>
      </trkpt>
      <trkpt lat="45.80764" lon="4.06648">
        <ele>351</ele>
        <time>2016-04-22T06:53:04Z</time>
      </trkpt>
      <trkpt lat="45.80759" lon="4.06644">
        <ele>351</ele>
        <time>2016-04-22T06:53:09Z</time>
      </trkpt>
      <trkpt lat="45.80754" lon="4.06644">
        <ele>351</ele>
        <time>2016-04-22T06:53:14Z</time>
      </trkpt>
      <trkpt lat="45.8072" lon="4.06661">
        <ele>353</ele>
        <time>2016-04-22T06:53:45Z</time>
      </trkpt>
      <trkpt lat="45.80686" lon="4.06678">
        <ele>353</ele>
        <time>2016-04-22T06:54:18Z</time>
      </trkpt>
      <trkpt lat="45.80665" lon="4.0669">
        <ele>354</ele>
        <time>2016-04-22T06:54:35Z</time>
      </trkpt>
      <trkpt lat="45.80637" lon="4.06702">
        <ele>353</ele>
        <time>2016-04-22T06:55:00Z</time>
      </trkpt>
      <trkpt lat="45.80599" lon="4.06723">
        <ele>353</ele>
        <time>2016-04-22T06:55:33Z</time>
      </trkpt>
      <trkpt lat="45.80595" lon="4.06725">
        <ele>354</ele>
        <time>2016-04-22T06:55:37Z</time>
      </trkpt>
      <trkpt lat="45.80561" lon="4.06741">
        <ele>354</ele>
        <time>2016-04-22T06:56:08Z</time>
      </trkpt>
      <trkpt lat="45.80524" lon="4.06758">
        <ele>354</ele>
        <time>2016-04-22T06:56:42Z</time>
      </trkpt>
      <trkpt lat="45.80487" lon="4.06777">
        <ele>353</ele>
        <time>2016-04-22T06:57:15Z</time>
      </trkpt>
      <trkpt lat="45.80449" lon="4.06797">
        <ele>353</ele>
        <time>2016-04-22T06:57:48Z</time>
      </trkpt>
      <trkpt lat="45.80412" lon="4.06817">
        <ele>354</ele>
        <time>2016-04-22T06:58:20Z</time>
      </trkpt>
      <trkpt lat="45.80374" lon="4.06839">
        <ele>355</ele>
        <time>2016-04-22T06:58:54Z</time>
      </trkpt>
      <trkpt lat="45.80337" lon="4.06857">
        <ele>354</ele>
        <time>2016-04-22T06:59:27Z</time>
      </trkpt>
      <trkpt lat="45.80322" lon="4.06861">
        <ele>353</ele>
        <time>2016-04-22T06:59:40Z</time>
      </trkpt>
      <trkpt lat="45.80307" lon="4.06854">
        <ele>352</ele>
        <time>2016-04-22T06:59:52Z</time>
      </trkpt>
      <trkpt lat="45.80303" lon="4.06849">
        <ele>352</ele>
        <time>2016-04-22T06:59:56Z</time>
      </trkpt>
      <trkpt lat="45.80285" lon="4.06814">
        <ele>353</ele>
        <time>2016-04-22T07:00:22Z</time>
      </trkpt>
      <trkpt lat="45.80272" lon="4.06791">
        <ele>353</ele>
        <time>2016-04-22T07:00:40Z</time>
      </trkpt>
      <trkpt lat="45.80258" lon="4.06788">
        <ele>353</ele>
        <time>2016-04-22T07:00:55Z</time>
      </trkpt>
      <trkpt lat="45.80253" lon="4.06788">
        <ele>353</ele>
        <time>2016-04-22T07:01:00Z</time>
      </trkpt>
      <trkpt lat="45.80247" lon="4.06788">
        <ele>353</ele>
        <time>2016-04-22T07:01:04Z</time>
      </trkpt>
      <trkpt lat="45.80233" lon="4.0678">
        <ele>352</ele>
        <time>2016-04-22T07:01:16Z</time>
      </trkpt>
      <trkpt lat="45.80226" lon="4.0677">
        <ele>352</ele>
        <time>2016-04-22T07:01:24Z</time>
      </trkpt>
      <trkpt lat="45.80222" lon="4.0673">
        <ele>352</ele>
        <time>2016-04-22T07:01:48Z</time>
      </trkpt>
      <trkpt lat="45.80217" lon="4.06674">
        <ele>350</ele>
        <time>2016-04-22T07:02:22Z</time>
      </trkpt>
      <trkpt lat="45.80214" lon="4.0666">
        <ele>349</ele>
        <time>2016-04-22T07:02:30Z</time>
      </trkpt>
      <trkpt lat="45.80209" lon="4.06627">
        <ele>349</ele>
        <time>2016-04-22T07:02:50Z</time>
      </trkpt>
      <trkpt lat="45.80207" lon="4.06621">
        <ele>350</ele>
        <time>2016-04-22T07:02:54Z</time>
      </trkpt>
      <trkpt lat="45.80206" lon="4.06614">
        <ele>350</ele>
        <time>2016-04-22T07:02:58Z</time>
      </trkpt>
      <trkpt lat="45.80203" lon="4.06602">
        <ele>350</ele>
        <time>2016-04-22T07:03:06Z</time>
      </trkpt>
      <trkpt lat="45.80201" lon="4.06596">
        <ele>350</ele>
        <time>2016-04-22T07:03:10Z</time>
      </trkpt>
      <trkpt lat="45.80197" lon="4.06584">
        <ele>350</ele>
        <time>2016-04-22T07:03:18Z</time>
      </trkpt>
      <trkpt lat="45.80188" lon="4.06534">
        <ele>349</ele>
        <time>2016-04-22T07:03:50Z</time>
      </trkpt>
      <trkpt lat="45.80183" lon="4.06483">
        <ele>348</ele>
        <time>2016-04-22T07:04:23Z</time>
      </trkpt>
      <trkpt lat="45.80179" lon="4.06432">
        <ele>349</ele>
        <time>2016-04-22T07:04:55Z</time>
      </trkpt>
      <trkpt lat="45.80176" lon="4.06376">
        <ele>348</ele>
        <time>2016-04-22T07:05:29Z</time>
      </trkpt>
      <trkpt lat="45.80176" lon="4.06356">
        <ele>347</ele>
        <time>2016-04-22T07:05:48Z</time>
      </trkpt>
      <trkpt lat="45.80174" lon="4.06347">
        <ele>348</ele>
        <time>2016-04-22T07:06:21Z</time>
      </trkpt>
      <trkpt lat="45.80174" lon="4.0634">
        <ele>348</ele>
        <time>2016-04-22T07:06:25Z</time>
      </trkpt>
      <trkpt lat="45.80173" lon="4.06329">
        <ele>348</ele>
        <time>2016-04-22T07:06:31Z</time>
      </trkpt>
      <trkpt lat="45.80172" lon="4.0632">
        <ele>348</ele>
        <time>2016-04-22T07:06:36Z</time>
      </trkpt>
      <trkpt lat="45.8017" lon="4.0627">
        <ele>350</ele>
        <time>2016-04-22T07:07:09Z</time>
      </trkpt>
      <trkpt lat="45.80169" lon="4.06263">
        <ele>350</ele>
        <time>2016-04-22T07:07:13Z</time>
      </trkpt>
      <trkpt lat="45.8017" lon="4.06257">
        <ele>350</ele>
        <time>2016-04-22T07:07:17Z</time>
      </trkpt>
      <trkpt lat="45.80173" lon="4.06202">
        <ele>348</ele>
        <time>2016-04-22T07:07:51Z</time>
      </trkpt>
      <trkpt lat="45.8017" lon="4.0618">
        <ele>348</ele>
        <time>2016-04-22T07:08:05Z</time>
      </trkpt>
      <trkpt lat="45.80169" lon="4.06177">
        <ele>347</ele>
        <time>2016-04-22T07:08:15Z</time>
      </trkpt>
      <trkpt lat="45.80167" lon="4.06168">
        <ele>348</ele>
        <time>2016-04-22T07:08:44Z</time>
      </trkpt>
      <trkpt lat="45.80165" lon="4.06162">
        <ele>348</ele>
        <time>2016-04-22T07:08:49Z</time>
      </trkpt>
      <trkpt lat="45.80163" lon="4.06159">
        <ele>349</ele>
        <time>2016-04-22T07:08:56Z</time>
      </trkpt>
      <trkpt lat="45.80163" lon="4.06153">
        <ele>350</ele>
        <time>2016-04-22T07:09:17Z</time>
      </trkpt>
      <trkpt lat="45.80161" lon="4.06147">
        <ele>350</ele>
        <time>2016-04-22T07:09:21Z</time>
      </trkpt>
      <trkpt lat="45.8016" lon="4.0614">
        <ele>350</ele>
        <time>2016-04-22T07:09:26Z</time>
      </trkpt>
      <trkpt lat="45.80159" lon="4.06133">
        <ele>349</ele>
        <time>2016-04-22T07:09:31Z</time>
      </trkpt>
      <trkpt lat="45.80157" lon="4.06126">
        <ele>349</ele>
        <time>2016-04-22T07:09:35Z</time>
      </trkpt>
      <trkpt lat="45.80156" lon="4.06119">
        <ele>348</ele>
        <time>2016-04-22T07:09:40Z</time>
      </trkpt>
      <trkpt lat="45.80153" lon="4.06098">
        <ele>350</ele>
        <time>2016-04-22T07:09:53Z</time>
      </trkpt>
      <trkpt lat="45.80152" lon="4.06092">
        <ele>350</ele>
        <time>2016-04-22T07:09:57Z</time>
      </trkpt>
      <trkpt lat="45.8015" lon="4.06078">
        <ele>349</ele>
        <time>2016-04-22T07:10:06Z</time>
      </trkpt>
      <trkpt lat="45.80148" lon="4.0607">
        <ele>348</ele>
        <time>2016-04-22T07:10:11Z</time>
      </trkpt>
      <trkpt lat="45.80145" lon="4.06041">
        <ele>347</ele>
        <time>2016-04-22T07:10:31Z</time>
      </trkpt>
      <trkpt lat="45.80137" lon="4.05992">
        <ele>348</ele>
        <time>2016-04-22T07:11:05Z</time>
      </trkpt>
      <trkpt lat="45.80128" lon="4.05943">
        <ele>348</ele>
        <time>2016-04-22T07:11:35Z</time>
      </trkpt>
      <trkpt lat="45.80122" lon="4.05915">
        <ele>349</ele>
        <time>2016-04-22T07:11:54Z</time>
      </trkpt>
      <trkpt lat="45.80111" lon="4.05864">
        <ele>351</ele>
        <time>2016-04-22T07:12:29Z</time>
      </trkpt>
      <trkpt lat="45.80102" lon="4.05821">
        <ele>352</ele>
        <time>2016-04-22T07:13:01Z</time>
      </trkpt>
      <trkpt lat="45.80096" lon="4.05799">
        <ele>354</ele>
        <time>2016-04-22T07:13:14Z</time>
      </trkpt>
      <trkpt lat="45.80094" lon="4.05793">
        <ele>354</ele>
        <time>2016-04-22T07:13:18Z</time>
      </trkpt>
      <trkpt lat="45.80093" lon="4.05786">
        <ele>353</ele>
        <time>2016-04-22T07:13:23Z</time>
      </trkpt>
      <trkpt lat="45.80091" lon="4.05779">
        <ele>354</ele>
        <time>2016-04-22T07:13:28Z</time>
      </trkpt>
      <trkpt lat="45.80076" lon="4.05729">
        <ele>353</ele>
        <time>2016-04-22T07:14:02Z</time>
      </trkpt>
      <trkpt lat="45.80059" lon="4.05678">
        <ele>353</ele>
        <time>2016-04-22T07:14:36Z</time>
      </trkpt>
      <trkpt lat="45.80046" lon="4.05632">
        <ele>353</ele>
        <time>2016-04-22T07:15:08Z</time>
      </trkpt>
      <trkpt lat="45.80035" lon="4.05583">
        <ele>353</ele>
        <time>2016-04-22T07:15:40Z</time>
      </trkpt>
      <trkpt lat="45.80024" lon="4.05531">
        <ele>352</ele>
        <time>2016-04-22T07:16:13Z</time>
      </trkpt>
      <trkpt lat="45.80016" lon="4.05481">
        <ele>353</ele>
        <time>2016-04-22T07:16:43Z</time>
      </trkpt>
      <trkpt lat="45.80008" lon="4.05424">
        <ele>353</ele>
        <time>2016-04-22T07:17:18Z</time>
      </trkpt>
      <trkpt lat="45.80003" lon="4.05376">
        <ele>352</ele>
        <time>2016-04-22T07:17:52Z</time>
      </trkpt>
      <trkpt lat="45.80001" lon="4.05364">
        <ele>353</ele>
        <time>2016-04-22T07:18:37Z</time>
      </trkpt>
      <trkpt lat="45.79999" lon="4.05342">
        <ele>353</ele>
        <time>2016-04-22T07:18:50Z</time>
      </trkpt>
      <trkpt lat="45.79998" lon="4.05327">
        <ele>352</ele>
        <time>2016-04-22T07:18:59Z</time>
      </trkpt>
      <trkpt lat="45.79994" lon="4.05279">
        <ele>353</ele>
        <time>2016-04-22T07:19:37Z</time>
      </trkpt>
      <trkpt lat="45.79993" lon="4.05271">
        <ele>353</ele>
        <time>2016-04-22T07:19:41Z</time>
      </trkpt>
      <trkpt lat="45.79992" lon="4.05258">
        <ele>354</ele>
        <time>2016-04-22T07:19:49Z</time>
      </trkpt>
      <trkpt lat="45.7999" lon="4.05198">
        <ele>355</ele>
        <time>2016-04-22T07:20:21Z</time>
      </trkpt>
      <trkpt lat="45.79988" lon="4.05153">
        <ele>356</ele>
        <time>2016-04-22T07:20:53Z</time>
      </trkpt>
      <trkpt lat="45.79987" lon="4.05139">
        <ele>356</ele>
        <time>2016-04-22T07:21:01Z</time>
      </trkpt>
      <trkpt lat="45.79987" lon="4.05124">
        <ele>356</ele>
        <time>2016-04-22T07:21:09Z</time>
      </trkpt>
      <trkpt lat="45.79987" lon="4.05109">
        <ele>356</ele>
        <time>2016-04-22T07:21:17Z</time>
      </trkpt>
      <trkpt lat="45.79993" lon="4.05051">
        <ele>357</ele>
        <time>2016-04-22T07:21:49Z</time>
      </trkpt>
      <trkpt lat="45.80001" lon="4.04995">
        <ele>359</ele>
        <time>2016-04-22T07:22:21Z</time>
      </trkpt>
      <trkpt lat="45.80005" lon="4.04975">
        <ele>358</ele>
        <time>2016-04-22T07:22:33Z</time>
      </trkpt>
      <trkpt lat="45.80006" lon="4.04968">
        <ele>359</ele>
        <time>2016-04-22T07:22:37Z</time>
      </trkpt>
      <trkpt lat="45.80012" lon="4.04909">
        <ele>359</ele>
        <time>2016-04-22T07:23:09Z</time>
      </trkpt>
      <trkpt lat="45.80014" lon="4.04894">
        <ele>359</ele>
        <time>2016-04-22T07:23:17Z</time>
      </trkpt>
      <trkpt lat="45.80015" lon="4.04887">
        <ele>359</ele>
        <time>2016-04-22T07:23:21Z</time>
      </trkpt>
      <trkpt lat="45.80021" lon="4.04829">
        <ele>359</ele>
        <time>2016-04-22T07:23:53Z</time>
      </trkpt>
      <trkpt lat="45.80025" lon="4.04793">
        <ele>360</ele>
        <time>2016-04-22T07:24:13Z</time>
      </trkpt>
      <trkpt lat="45.80024" lon="4.04775">
        <ele>359</ele>
        <time>2016-04-22T07:24:27Z</time>
      </trkpt>
      <trkpt lat="45.79998" lon="4.04741">
        <ele>359</ele>
        <time>2016-04-22T07:24:57Z</time>
      </trkpt>
      <trkpt lat="45.79967" lon="4.04708">
        <ele>360</ele>
        <time>2016-04-22T07:25:29Z</time>
      </trkpt>
      <trkpt lat="45.79937" lon="4.04682">
        <ele>359</ele>
        <time>2016-04-22T07:25:59Z</time>
      </trkpt>
      <trkpt lat="45.79907" lon="4.04653">
        <ele>358</ele>
        <time>2016-04-22T07:26:30Z</time>
      </trkpt>
      <trkpt lat="45.79878" lon="4.04613">
        <ele>358</ele>
        <time>2016-04-22T07:27:03Z</time>
      </trkpt>
      <trkpt lat="45.79853" lon="4.04567">
        <ele>358</ele>
        <time>2016-04-22T07:27:36Z</time>
      </trkpt>
      <trkpt lat="45.79836" lon="4.04516">
        <ele>358</ele>
        <time>2016-04-22T07:28:09Z</time>
      </trkpt>
      <trkpt lat="45.7982" lon="4.04467">
        <ele>358</ele>
        <time>2016-04-22T07:28:42Z</time>
      </trkpt>
      <trkpt lat="45.798" lon="4.04423">
        <ele>360</ele>
        <time>2016-04-22T07:29:15Z</time>
      </trkpt>
      <trkpt lat="45.79798" lon="4.04417">
        <ele>360</ele>
        <time>2016-04-22T07:29:20Z</time>
      </trkpt>
      <trkpt lat="45.79765" lon="4.04388">
        <ele>359</ele>
        <time>2016-04-22T07:29:53Z</time>
      </trkpt>
      <trkpt lat="45.79748" lon="4.04373">
        <ele>358</ele>
        <time>2016-04-22T07:30:10Z</time>
      </trkpt>
      <trkpt lat="45.79714" lon="4.04348">
        <ele>359</ele>
        <time>2016-04-22T07:30:42Z</time>
      </trkpt>
      <trkpt lat="45.79693" lon="4.04325">
        <ele>359</ele>
        <time>2016-04-22T07:31:12Z</time>
      </trkpt>
      <trkpt lat="45.79689" lon="4.0432">
        <ele>359</ele>
        <time>2016-04-22T07:31:17Z</time>
      </trkpt>
      <trkpt lat="45.79685" lon="4.04316">
        <ele>359</ele>
        <time>2016-04-22T07:31:21Z</time>
      </trkpt>
      <trkpt lat="45.79678" lon="4.04307">
        <ele>360</ele>
        <time>2016-04-22T07:31:29Z</time>
      </trkpt>
      <trkpt lat="45.79675" lon="4.04302">
        <ele>359</ele>
        <time>2016-04-22T07:31:33Z</time>
      </trkpt>
      <trkpt lat="45.79649" lon="4.04264">
        <ele>360</ele>
        <time>2016-04-22T07:32:05Z</time>
      </trkpt>
      <trkpt lat="45.79623" lon="4.04224">
        <ele>360</ele>
        <time>2016-04-22T07:32:37Z</time>
      </trkpt>
      <trkpt lat="45.79596" lon="4.04192">
        <ele>360</ele>
        <time>2016-04-22T07:33:09Z</time>
      </trkpt>
      <trkpt lat="45.79584" lon="4.04171">
        <ele>360</ele>
        <time>2016-04-22T07:33:28Z</time>
      </trkpt>
      <trkpt lat="45.79581" lon="4.04165">
        <ele>360</ele>
        <time>2016-04-22T07:33:33Z</time>
      </trkpt>
      <trkpt lat="45.79562" lon="4.04122">
        <ele>359</ele>
        <time>2016-04-22T07:34:05Z</time>
      </trkpt>
      <trkpt lat="45.79551" lon="4.04098">
        <ele>357</ele>
        <time>2016-04-22T07:34:22Z</time>
      </trkpt>
      <trkpt lat="45.79548" lon="4.04091">
        <ele>358</ele>
        <time>2016-04-22T07:34:27Z</time>
      </trkpt>
      <trkpt lat="45.79545" lon="4.04086">
        <ele>358</ele>
        <time>2016-04-22T07:34:31Z</time>
      </trkpt>
      <trkpt lat="45.79542" lon="4.0408">
        <ele>358</ele>
        <time>2016-04-22T07:34:35Z</time>
      </trkpt>
      <trkpt lat="45.79535" lon="4.04062">
        <ele>360</ele>
        <time>2016-04-22T07:34:47Z</time>
      </trkpt>
      <trkpt lat="45.79529" lon="4.0405">
        <ele>360</ele>
        <time>2016-04-22T07:34:56Z</time>
      </trkpt>
      <trkpt lat="45.79509" lon="4.04005">
        <ele>364</ele>
        <time>2016-04-22T07:35:28Z</time>
      </trkpt>
      <trkpt lat="45.79501" lon="4.03986">
        <ele>364</ele>
        <time>2016-04-22T07:35:41Z</time>
      </trkpt>
      <trkpt lat="45.79486" lon="4.0395">
        <ele>366</ele>
        <time>2016-04-22T07:36:08Z</time>
      </trkpt>
      <trkpt lat="45.79476" lon="4.03928">
        <ele>365</ele>
        <time>2016-04-22T07:36:28Z</time>
      </trkpt>
      <trkpt lat="45.79474" lon="4.0392">
        <ele>366</ele>
        <time>2016-04-22T07:37:01Z</time>
      </trkpt>
      <trkpt lat="45.7947" lon="4.03907">
        <ele>367</ele>
        <time>2016-04-22T07:37:11Z</time>
      </trkpt>
      <trkpt lat="45.79468" lon="4.03905">
        <ele>367</ele>
        <time>2016-04-22T07:37:17Z</time>
      </trkpt>
      <trkpt lat="45.79463" lon="4.03903">
        <ele>366</ele>
        <time>2016-04-22T07:37:32Z</time>
      </trkpt>
      <trkpt lat="45.79463" lon="4.03897">
        <ele>367</ele>
        <time>2016-04-22T07:38:06Z</time>
      </trkpt>
      <trkpt lat="45.79466" lon="4.03892">
        <ele>367</ele>
        <time>2016-04-22T07:38:11Z</time>
      </trkpt>
      <trkpt lat="45.79468" lon="4.03886">
        <ele>368</ele>
        <time>2016-04-22T07:38:16Z</time>
      </trkpt>
      <trkpt lat="45.79472" lon="4.03873">
        <ele>368</ele>
        <time>2016-04-22T07:38:25Z</time>
      </trkpt>
      <trkpt lat="45.79473" lon="4.03866">
        <ele>367</ele>
        <time>2016-04-22T07:38:30Z</time>
      </trkpt>
      <trkpt lat="45.79477" lon="4.03853">
        <ele>368</ele>
        <time>2016-04-22T07:38:40Z</time>
      </trkpt>
      <trkpt lat="45.79478" lon="4.03846">
        <ele>368</ele>
        <time>2016-04-22T07:38:45Z</time>
      </trkpt>
      <trkpt lat="45.79484" lon="4.03798">
        <ele>367</ele>
        <time>2016-04-22T07:39:14Z</time>
      </trkpt>
      <trkpt lat="45.79488" lon="4.03748">
        <ele>371</ele>
        <time>2016-04-22T07:39:46Z</time>
      </trkpt>
      <trkpt lat="45.79489" lon="4.03725">
        <ele>372</ele>
        <time>2016-04-22T07:40:00Z</time>
      </trkpt>
      <trkpt lat="45.79489" lon="4.03718">
        <ele>371</ele>
        <time>2016-04-22T07:40:05Z</time>
      </trkpt>
      <trkpt lat="45.7949" lon="4.03705">
        <ele>370</ele>
        <time>2016-04-22T07:40:13Z</time>
      </trkpt>
      <trkpt lat="45.7949" lon="4.03698">
        <ele>370</ele>
        <time>2016-04-22T07:40:17Z</time>
      </trkpt>
      <trkpt lat="45.79491" lon="4.03691">
        <ele>370</ele>
        <time>2016-04-22T07:40:21Z</time>
      </trkpt>
      <trkpt lat="45.79491" lon="4.03684">
        <ele>371</ele>
        <time>2016-04-22T07:40:25Z</time>
      </trkpt>
      <trkpt lat="45.79492" lon="4.03678">
        <ele>371</ele>
        <time>2016-04-22T07:40:29Z</time>
      </trkpt>
      <trkpt lat="45.79492" lon="4.03663">
        <ele>370</ele>
        <time>2016-04-22T07:40:38Z</time>
      </trkpt>
      <trkpt lat="45.79494" lon="4.03643">
        <ele>372</ele>
        <time>2016-04-22T07:40:51Z</time>
      </trkpt>
      <trkpt lat="45.79495" lon="4.03606">
        <ele>373</ele>
        <time>2016-04-22T07:41:12Z</time>
      </trkpt>
      <trkpt lat="45.79494" lon="4.03579">
        <ele>374</ele>
        <time>2016-04-22T07:41:28Z</time>
      </trkpt>
      <trkpt lat="45.79494" lon="4.03543">
        <ele>373</ele>
        <time>2016-04-22T07:41:50Z</time>
      </trkpt>
      <trkpt lat="45.79497" lon="4.03494">
        <ele>375</ele>
        <time>2016-04-22T07:42:24Z</time>
      </trkpt>
      <trkpt lat="45.795" lon="4.03496">
        <ele>375</ele>
        <time>2016-04-22T07:42:35Z</time>
      </trkpt>
      <trkpt lat="45.79494" lon="4.03492">
        <ele>377</ele>
        <time>2016-04-22T07:48:54Z</time>
      </trkpt>
      <trkpt lat="45.79488" lon="4.03491">
        <ele>378</ele>
        <time>2016-04-22T07:48:59Z</time>
      </trkpt>
      <trkpt lat="45.79485" lon="4.03486">
        <ele>379</ele>
        <time>2016-04-22T07:49:06Z</time>
      </trkpt>
      <trkpt lat="45.7948" lon="4.03485">
        <ele>379</ele>
        <time>2016-04-22T07:49:13Z</time>
      </trkpt>
      <trkpt lat="45.79475" lon="4.03488">
        <ele>379</ele>
        <time>2016-04-22T07:49:24Z</time>
      </trkpt>
      <trkpt lat="45.79465" lon="4.0349">
        <ele>379</ele>
        <time>2016-04-22T07:49:37Z</time>
      </trkpt>
      <trkpt lat="45.79456" lon="4.03491">
        <ele>379</ele>
        <time>2016-04-22T07:49:45Z</time>
      </trkpt>
      <trkpt lat="45.79446" lon="4.03487">
        <ele>379</ele>
        <time>2016-04-22T07:49:54Z</time>
      </trkpt>
      <trkpt lat="45.79441" lon="4.03485">
        <ele>380</ele>
        <time>2016-04-22T07:49:58Z</time>
      </trkpt>
      <trkpt lat="45.79437" lon="4.0348">
        <ele>380</ele>
        <time>2016-04-22T07:50:02Z</time>
      </trkpt>
      <trkpt lat="45.79434" lon="4.03474">
        <ele>380</ele>
        <time>2016-04-22T07:50:06Z</time>
      </trkpt>
      <trkpt lat="45.79432" lon="4.03468">
        <ele>380</ele>
        <time>2016-04-22T07:50:10Z</time>
      </trkpt>
      <trkpt lat="45.79432" lon="4.03464">
        <ele>380</ele>
        <time>2016-04-22T07:50:16Z</time>
      </trkpt>
      <trkpt lat="45.79436" lon="4.03463">
        <ele>381</ele>
        <time>2016-04-22T07:50:25Z</time>
      </trkpt>
      <trkpt lat="45.7944" lon="4.03453">
        <ele>380</ele>
        <time>2016-04-22T07:58:58Z</time>
      </trkpt>
      <trkpt lat="45.79435" lon="4.0344">
        <ele>380</ele>
        <time>2016-04-22T07:59:13Z</time>
      </trkpt>
      <trkpt lat="45.79446" lon="4.03438">
        <ele>381</ele>
        <time>2016-04-22T07:59:48Z</time>
      </trkpt>
      <trkpt lat="45.7944" lon="4.0343">
        <ele>382</ele>
        <time>2016-04-22T08:01:06Z</time>
      </trkpt>
      <trkpt lat="45.79437" lon="4.03425">
        <ele>382</ele>
        <time>2016-04-22T08:01:20Z</time>
      </trkpt>
      <trkpt lat="45.79435" lon="4.03418">
        <ele>382</ele>
        <time>2016-04-22T08:02:36Z</time>
      </trkpt>
      <trkpt lat="45.79426" lon="4.03423">
        <ele>382</ele>
        <time>2016-04-22T08:03:29Z</time>
      </trkpt>
      <trkpt lat="45.79431" lon="4.03435">
        <ele>382</ele>
        <time>2016-04-22T08:03:37Z</time>
      </trkpt>
      <trkpt lat="45.79429" lon="4.03446">
        <ele>382</ele>
        <time>2016-04-22T08:04:18Z</time>
      </trkpt>
      <trkpt lat="45.79425" lon="4.03444">
        <ele>382</ele>
        <time>2016-04-22T08:04:24Z</time>
      </trkpt>
      <trkpt lat="45.7942" lon="4.0344">
        <ele>381</ele>
        <time>2016-04-22T08:04:30Z</time>
      </trkpt>
      <trkpt lat="45.79415" lon="4.03439">
        <ele>382</ele>
        <time>2016-04-22T08:04:36Z</time>
      </trkpt>
      <trkpt lat="45.79397" lon="4.03427">
        <ele>381</ele>
        <time>2016-04-22T08:04:56Z</time>
      </trkpt>
      <trkpt lat="45.79386" lon="4.03425">
        <ele>381</ele>
        <time>2016-04-22T08:05:07Z</time>
      </trkpt>
      <trkpt lat="45.79372" lon="4.03405">
        <ele>384</ele>
        <time>2016-04-22T08:05:26Z</time>
      </trkpt>
      <trkpt lat="45.79369" lon="4.03399">
        <ele>384</ele>
        <time>2016-04-22T08:05:30Z</time>
      </trkpt>
      <trkpt lat="45.79347" lon="4.0337">
        <ele>384</ele>
        <time>2016-04-22T08:05:55Z</time>
      </trkpt>
      <trkpt lat="45.79339" lon="4.0336">
        <ele>384</ele>
        <time>2016-04-22T08:06:05Z</time>
      </trkpt>
      <trkpt lat="45.79337" lon="4.03354">
        <ele>382</ele>
        <time>2016-04-22T08:06:13Z</time>
      </trkpt>
      <trkpt lat="45.79326" lon="4.0334">
        <ele>380</ele>
        <time>2016-04-22T08:06:25Z</time>
      </trkpt>
      <trkpt lat="45.79328" lon="4.03336">
        <ele>381</ele>
        <time>2016-04-22T08:06:51Z</time>
      </trkpt>
      <trkpt lat="45.79324" lon="4.03332">
        <ele>382</ele>
        <time>2016-04-22T08:07:04Z</time>
      </trkpt>
      <trkpt lat="45.79323" lon="4.03326">
        <ele>383</ele>
        <time>2016-04-22T08:07:14Z</time>
      </trkpt>
      <trkpt lat="45.79325" lon="4.03291">
        <ele>385</ele>
        <time>2016-04-22T08:07:39Z</time>
      </trkpt>
      <trkpt lat="45.79329" lon="4.03286">
        <ele>385</ele>
        <time>2016-04-22T08:07:44Z</time>
      </trkpt>
      <trkpt lat="45.79333" lon="4.03286">
        <ele>383</ele>
        <time>2016-04-22T08:07:54Z</time>
      </trkpt>
      <trkpt lat="45.79334" lon="4.03293">
        <ele>383</ele>
        <time>2016-04-22T08:08:01Z</time>
      </trkpt>
      <trkpt lat="45.79336" lon="4.03301">
        <ele>380</ele>
        <time>2016-04-22T08:08:40Z</time>
      </trkpt>
      <trkpt lat="45.79336" lon="4.03291">
        <ele>380</ele>
        <time>2016-04-22T08:10:14Z</time>
      </trkpt>
      <trkpt lat="45.79334" lon="4.0329">
        <ele>379</ele>
        <time>2016-04-22T08:11:28Z</time>
      </trkpt>
      <trkpt lat="45.7933" lon="4.03294">
        <ele>379</ele>
        <time>2016-04-22T08:11:34Z</time>
      </trkpt>
      <trkpt lat="45.79324" lon="4.03304">
        <ele>381</ele>
        <time>2016-04-22T08:11:46Z</time>
      </trkpt>
      <trkpt lat="45.79325" lon="4.03312">
        <ele>381</ele>
        <time>2016-04-22T08:11:52Z</time>
      </trkpt>
      <trkpt lat="45.79325" lon="4.03319">
        <ele>381</ele>
        <time>2016-04-22T08:11:57Z</time>
      </trkpt>
      <trkpt lat="45.79327" lon="4.03325">
        <ele>381</ele>
        <time>2016-04-22T08:12:02Z</time>
      </trkpt>
      <trkpt lat="45.79324" lon="4.0333">
        <ele>381</ele>
        <time>2016-04-22T08:12:14Z</time>
      </trkpt>
      <trkpt lat="45.79321" lon="4.03328">
        <ele>382</ele>
        <time>2016-04-22T08:12:58Z</time>
      </trkpt>
      <trkpt lat="45.79311" lon="4.03325">
        <ele>383</ele>
        <time>2016-04-22T08:13:06Z</time>
      </trkpt>
      <trkpt lat="45.79279" lon="4.03292">
        <ele>384</ele>
        <time>2016-04-22T08:13:38Z</time>
      </trkpt>
      <trkpt lat="45.79264" lon="4.03283">
        <ele>384</ele>
        <time>2016-04-22T08:13:52Z</time>
      </trkpt>
      <trkpt lat="45.79259" lon="4.03281">
        <ele>384</ele>
        <time>2016-04-22T08:13:56Z</time>
      </trkpt>
      <trkpt lat="45.7922" lon="4.03261">
        <ele>386</ele>
        <time>2016-04-22T08:14:27Z</time>
      </trkpt>
      <trkpt lat="45.79206" lon="4.03254">
        <ele>386</ele>
        <time>2016-04-22T08:14:37Z</time>
      </trkpt>
      <trkpt lat="45.79201" lon="4.03251">
        <ele>386</ele>
        <time>2016-04-22T08:14:42Z</time>
      </trkpt>
      <trkpt lat="45.79163" lon="4.03236">
        <ele>386</ele>
        <time>2016-04-22T08:15:15Z</time>
      </trkpt>
      <trkpt lat="45.79134" lon="4.03231">
        <ele>386</ele>
        <time>2016-04-22T08:15:45Z</time>
      </trkpt>
      <trkpt lat="45.79125" lon="4.03236">
        <ele>386</ele>
        <time>2016-04-22T08:15:54Z</time>
      </trkpt>
      <trkpt lat="45.79088" lon="4.03255">
        <ele>386</ele>
        <time>2016-04-22T08:16:27Z</time>
      </trkpt>
      <trkpt lat="45.79084" lon="4.03258">
        <ele>386</ele>
        <time>2016-04-22T08:16:31Z</time>
      </trkpt>
      <trkpt lat="45.79054" lon="4.03281">
        <ele>385</ele>
        <time>2016-04-22T08:17:02Z</time>
      </trkpt>
      <trkpt lat="45.79023" lon="4.03305">
        <ele>385</ele>
        <time>2016-04-22T08:17:33Z</time>
      </trkpt>
      <trkpt lat="45.79018" lon="4.03308">
        <ele>386</ele>
        <time>2016-04-22T08:17:38Z</time>
      </trkpt>
      <trkpt lat="45.78991" lon="4.03326">
        <ele>386</ele>
        <time>2016-04-22T08:18:05Z</time>
      </trkpt>
      <trkpt lat="45.78974" lon="4.0334">
        <ele>387</ele>
        <time>2016-04-22T08:18:23Z</time>
      </trkpt>
      <trkpt lat="45.78944" lon="4.03355">
        <ele>387</ele>
        <time>2016-04-22T08:18:57Z</time>
      </trkpt>
      <trkpt lat="45.78939" lon="4.03358">
        <ele>388</ele>
        <time>2016-04-22T08:19:03Z</time>
      </trkpt>
      <trkpt lat="45.78904" lon="4.0337">
        <ele>388</ele>
        <time>2016-04-22T08:19:33Z</time>
      </trkpt>
      <trkpt lat="45.78891" lon="4.03378">
        <ele>390</ele>
        <time>2016-04-22T08:19:45Z</time>
      </trkpt>
      <trkpt lat="45.78885" lon="4.03379">
        <ele>390</ele>
        <time>2016-04-22T08:19:49Z</time>
      </trkpt>
      <trkpt lat="45.78866" lon="4.0338">
        <ele>390</ele>
        <time>2016-04-22T08:20:06Z</time>
      </trkpt>
      <trkpt lat="45.78861" lon="4.03379">
        <ele>391</ele>
        <time>2016-04-22T08:20:10Z</time>
      </trkpt>
      <trkpt lat="45.78836" lon="4.03377">
        <ele>391</ele>
        <time>2016-04-22T08:20:30Z</time>
      </trkpt>
      <trkpt lat="45.788" lon="4.03374">
        <ele>393</ele>
        <time>2016-04-22T08:21:00Z</time>
      </trkpt>
      <trkpt lat="45.78785" lon="4.03375">
        <ele>392</ele>
        <time>2016-04-22T08:21:16Z</time>
      </trkpt>
      <trkpt lat="45.7876" lon="4.03371">
        <ele>392</ele>
        <time>2016-04-22T08:21:38Z</time>
      </trkpt>
      <trkpt lat="45.78746" lon="4.03367">
        <ele>392</ele>
        <time>2016-04-22T08:21:51Z</time>
      </trkpt>
      <trkpt lat="45.78745" lon="4.03374">
        <ele>392</ele>
        <time>2016-04-22T08:22:00Z</time>
      </trkpt>
      <trkpt lat="45.78745" lon="4.03387">
        <ele>393</ele>
        <time>2016-04-22T08:22:07Z</time>
      </trkpt>
      <trkpt lat="45.78743" lon="4.03382">
        <ele>393</ele>
        <time>2016-04-22T08:23:25Z</time>
      </trkpt>
      <trkpt lat="45.78741" lon="4.03375">
        <ele>393</ele>
        <time>2016-04-22T08:23:29Z</time>
      </trkpt>
      <trkpt lat="45.78736" lon="4.0337">
        <ele>393</ele>
        <time>2016-04-22T08:23:33Z</time>
      </trkpt>
      <trkpt lat="45.78731" lon="4.0337">
        <ele>394</ele>
        <time>2016-04-22T08:23:36Z</time>
      </trkpt>
      <trkpt lat="45.78726" lon="4.0337">
        <ele>394</ele>
        <time>2016-04-22T08:23:40Z</time>
      </trkpt>
      <trkpt lat="45.78683" lon="4.03365">
        <ele>394</ele>
        <time>2016-04-22T08:24:11Z</time>
      </trkpt>
      <trkpt lat="45.78644" lon="4.03362">
        <ele>394</ele>
        <time>2016-04-22T08:24:43Z</time>
      </trkpt>
      <trkpt lat="45.78609" lon="4.03362">
        <ele>395</ele>
        <time>2016-04-22T08:25:15Z</time>
      </trkpt>
      <trkpt lat="45.78574" lon="4.03362">
        <ele>395</ele>
        <time>2016-04-22T08:25:47Z</time>
      </trkpt>
      <trkpt lat="45.78565" lon="4.03362">
        <ele>395</ele>
        <time>2016-04-22T08:25:55Z</time>
      </trkpt>
      <trkpt lat="45.78535" lon="4.03358">
        <ele>397</ele>
        <time>2016-04-22T08:26:19Z</time>
      </trkpt>
      <trkpt lat="45.7853" lon="4.03358">
        <ele>397</ele>
        <time>2016-04-22T08:26:23Z</time>
      </trkpt>
      <trkpt lat="45.78491" lon="4.03356">
        <ele>398</ele>
        <time>2016-04-22T08:26:55Z</time>
      </trkpt>
      <trkpt lat="45.78456" lon="4.03353">
        <ele>398</ele>
        <time>2016-04-22T08:27:26Z</time>
      </trkpt>
      <trkpt lat="45.7842" lon="4.03352">
        <ele>398</ele>
        <time>2016-04-22T08:27:56Z</time>
      </trkpt>
      <trkpt lat="45.78415" lon="4.03351">
        <ele>399</ele>
        <time>2016-04-22T08:28:00Z</time>
      </trkpt>
      <trkpt lat="45.7841" lon="4.0335">
        <ele>399</ele>
        <time>2016-04-22T08:28:04Z</time>
      </trkpt>
      <trkpt lat="45.78375" lon="4.03347">
        <ele>399</ele>
        <time>2016-04-22T08:28:35Z</time>
      </trkpt>
      <trkpt lat="45.78372" lon="4.03347">
        <ele>398</ele>
        <time>2016-04-22T08:28:41Z</time>
      </trkpt>
      <trkpt lat="45.78367" lon="4.03348">
        <ele>399</ele>
        <time>2016-04-22T08:28:47Z</time>
      </trkpt>
      <trkpt lat="45.78358" lon="4.03348">
        <ele>399</ele>
        <time>2016-04-22T08:28:55Z</time>
      </trkpt>
      <trkpt lat="45.78324" lon="4.03345">
        <ele>401</ele>
        <time>2016-04-22T08:29:23Z</time>
      </trkpt>
      <trkpt lat="45.78321" lon="4.03345">
        <ele>400</ele>
        <time>2016-04-22T08:29:31Z</time>
      </trkpt>
      <trkpt lat="45.78317" lon="4.03343">
        <ele>400</ele>
        <time>2016-04-22T08:29:36Z</time>
      </trkpt>
      <trkpt lat="45.78311" lon="4.03343">
        <ele>401</ele>
        <time>2016-04-22T08:29:40Z</time>
      </trkpt>
      <trkpt lat="45.7828" lon="4.0334">
        <ele>401</ele>
        <time>2016-04-22T08:30:12Z</time>
      </trkpt>
      <trkpt lat="45.78239" lon="4.03338">
        <ele>401</ele>
        <time>2016-04-22T08:30:46Z</time>
      </trkpt>
      <trkpt lat="45.782" lon="4.03337">
        <ele>403</ele>
        <time>2016-04-22T08:31:19Z</time>
      </trkpt>
      <trkpt lat="45.78161" lon="4.03334">
        <ele>403</ele>
        <time>2016-04-22T08:31:51Z</time>
      </trkpt>
      <trkpt lat="45.78156" lon="4.03334">
        <ele>403</ele>
        <time>2016-04-22T08:32:01Z</time>
      </trkpt>
      <trkpt lat="45.78151" lon="4.03333">
        <ele>403</ele>
        <time>2016-04-22T08:32:14Z</time>
      </trkpt>
      <trkpt lat="45.78111" lon="4.03332">
        <ele>403</ele>
        <time>2016-04-22T08:32:47Z</time>
      </trkpt>
      <trkpt lat="45.78101" lon="4.03331">
        <ele>404</ele>
        <time>2016-04-22T08:32:55Z</time>
      </trkpt>
      <trkpt lat="45.78062" lon="4.03327">
        <ele>402</ele>
        <time>2016-04-22T08:33:27Z</time>
      </trkpt>
      <trkpt lat="45.78022" lon="4.03326">
        <ele>403</ele>
        <time>2016-04-22T08:34:00Z</time>
      </trkpt>
      <trkpt lat="45.77983" lon="4.03325">
        <ele>403</ele>
        <time>2016-04-22T08:34:33Z</time>
      </trkpt>
      <trkpt lat="45.7798" lon="4.0332">
        <ele>403</ele>
        <time>2016-04-22T08:35:03Z</time>
      </trkpt>
      <trkpt lat="45.77975" lon="4.0332">
        <ele>403</ele>
        <time>2016-04-22T08:35:07Z</time>
      </trkpt>
      <trkpt lat="45.77936" lon="4.03318">
        <ele>403</ele>
        <time>2016-04-22T08:35:39Z</time>
      </trkpt>
      <trkpt lat="45.77894" lon="4.03315">
        <ele>403</ele>
        <time>2016-04-22T08:36:12Z</time>
      </trkpt>
      <trkpt lat="45.77889" lon="4.03315">
        <ele>403</ele>
        <time>2016-04-22T08:36:17Z</time>
      </trkpt>
      <trkpt lat="45.77878" lon="4.03316">
        <ele>403</ele>
        <time>2016-04-22T08:36:25Z</time>
      </trkpt>
      <trkpt lat="45.77855" lon="4.03312">
        <ele>399</ele>
        <time>2016-04-22T08:36:46Z</time>
      </trkpt>
      <trkpt lat="45.77849" lon="4.03314">
        <ele>399</ele>
        <time>2016-04-22T08:37:41Z</time>
      </trkpt>
      <trkpt lat="45.77844" lon="4.03312">
        <ele>400</ele>
        <time>2016-04-22T08:37:45Z</time>
      </trkpt>
      <trkpt lat="45.77834" lon="4.03312">
        <ele>399</ele>
        <time>2016-04-22T08:37:53Z</time>
      </trkpt>
      <trkpt lat="45.77819" lon="4.03308">
        <ele>397</ele>
        <time>2016-04-22T08:38:05Z</time>
      </trkpt>
      <trkpt lat="45.77815" lon="4.03305">
        <ele>396</ele>
        <time>2016-04-22T08:38:09Z</time>
      </trkpt>
      <trkpt lat="45.7778" lon="4.03295">
        <ele>397</ele>
        <time>2016-04-22T08:38:40Z</time>
      </trkpt>
      <trkpt lat="45.7775" lon="4.03275">
        <ele>397</ele>
        <time>2016-04-22T08:39:10Z</time>
      </trkpt>
      <trkpt lat="45.77745" lon="4.03272">
        <ele>397</ele>
        <time>2016-04-22T08:39:14Z</time>
      </trkpt>
      <trkpt lat="45.77712" lon="4.03252">
        <ele>397</ele>
        <time>2016-04-22T08:39:45Z</time>
      </trkpt>
      <trkpt lat="45.77707" lon="4.03249">
        <ele>397</ele>
        <time>2016-04-22T08:39:49Z</time>
      </trkpt>
      <trkpt lat="45.77674" lon="4.03229">
        <ele>398</ele>
        <time>2016-04-22T08:40:20Z</time>
      </trkpt>
      <trkpt lat="45.77651" lon="4.03216">
        <ele>398</ele>
        <time>2016-04-22T08:40:40Z</time>
      </trkpt>
      <trkpt lat="45.77615" lon="4.03204">
        <ele>397</ele>
        <time>2016-04-22T08:41:11Z</time>
      </trkpt>
      <trkpt lat="45.77605" lon="4.03201">
        <ele>398</ele>
        <time>2016-04-22T08:41:19Z</time>
      </trkpt>
      <trkpt lat="45.776" lon="4.03201">
        <ele>398</ele>
        <time>2016-04-22T08:41:23Z</time>
      </trkpt>
      <trkpt lat="45.7756" lon="4.03194">
        <ele>400</ele>
        <time>2016-04-22T08:41:58Z</time>
      </trkpt>
      <trkpt lat="45.77541" lon="4.03192">
        <ele>399</ele>
        <time>2016-04-22T08:42:15Z</time>
      </trkpt>
      <trkpt lat="45.7754" lon="4.03197">
        <ele>399</ele>
        <time>2016-04-22T08:42:36Z</time>
      </trkpt>
      <trkpt lat="45.77541" lon="4.03201">
        <ele>399</ele>
        <time>2016-04-22T08:42:46Z</time>
      </trkpt>
      <trkpt lat="45.77536" lon="4.03194">
        <ele>399</ele>
        <time>2016-04-22T08:49:09Z</time>
      </trkpt>
      <trkpt lat="45.77531" lon="4.0319">
        <ele>399</ele>
        <time>2016-04-22T08:49:14Z</time>
      </trkpt>
      <trkpt lat="45.77527" lon="4.03187">
        <ele>399</ele>
        <time>2016-04-22T08:49:22Z</time>
      </trkpt>
      <trkpt lat="45.77507" lon="4.03177">
        <ele>399</ele>
        <time>2016-04-22T08:49:42Z</time>
      </trkpt>
      <trkpt lat="45.77484" lon="4.03168">
        <ele>400</ele>
        <time>2016-04-22T08:50:13Z</time>
      </trkpt>
      <trkpt lat="45.7748" lon="4.03162">
        <ele>400</ele>
        <time>2016-04-22T08:50:19Z</time>
      </trkpt>
      <trkpt lat="45.77477" lon="4.03158">
        <ele>400</ele>
        <time>2016-04-22T08:50:23Z</time>
      </trkpt>
      <trkpt lat="45.77443" lon="4.03141">
        <ele>400</ele>
        <time>2016-04-22T08:50:56Z</time>
      </trkpt>
      <trkpt lat="45.77439" lon="4.03138">
        <ele>401</ele>
        <time>2016-04-22T08:51:02Z</time>
      </trkpt>
      <trkpt lat="45.7743" lon="4.03134">
        <ele>401</ele>
        <time>2016-04-22T08:53:24Z</time>
      </trkpt>
      <trkpt lat="45.77421" lon="4.03133">
        <ele>402</ele>
        <time>2016-04-22T08:53:42Z</time>
      </trkpt>
      <trkpt lat="45.77406" lon="4.03133">
        <ele>402</ele>
        <time>2016-04-22T08:53:54Z</time>
      </trkpt>
      <trkpt lat="45.77401" lon="4.0313">
        <ele>403</ele>
        <time>2016-04-22T08:53:59Z</time>
      </trkpt>
      <trkpt lat="45.77399" lon="4.03125">
        <ele>400</ele>
        <time>2016-04-22T08:54:45Z</time>
      </trkpt>
      <trkpt lat="45.77395" lon="4.03121">
        <ele>401</ele>
        <time>2016-04-22T08:56:59Z</time>
      </trkpt>
      <trkpt lat="45.7739" lon="4.03119">
        <ele>401</ele>
        <time>2016-04-22T08:57:04Z</time>
      </trkpt>
      <trkpt lat="45.77386" lon="4.03115">
        <ele>401</ele>
        <time>2016-04-22T08:57:11Z</time>
      </trkpt>
      <trkpt lat="45.77381" lon="4.0312">
        <ele>400</ele>
        <time>2016-04-22T08:57:26Z</time>
      </trkpt>
      <trkpt lat="45.77378" lon="4.03125">
        <ele>399</ele>
        <time>2016-04-22T08:57:36Z</time>
      </trkpt>
      <trkpt lat="45.77379" lon="4.03131">
        <ele>399</ele>
        <time>2016-04-22T08:58:19Z</time>
      </trkpt>
      <trkpt lat="45.77371" lon="4.03151">
        <ele>400</ele>
        <time>2016-04-22T08:58:48Z</time>
      </trkpt>
      <trkpt lat="45.77369" lon="4.03159">
        <ele>399</ele>
        <time>2016-04-22T08:58:53Z</time>
      </trkpt>
      <trkpt lat="45.77367" lon="4.03165">
        <ele>399</ele>
        <time>2016-04-22T08:58:57Z</time>
      </trkpt>
      <trkpt lat="45.77363" lon="4.03179">
        <ele>400</ele>
        <time>2016-04-22T08:59:07Z</time>
      </trkpt>
      <trkpt lat="45.77354" lon="4.03197">
        <ele>400</ele>
        <time>2016-04-22T08:59:20Z</time>
      </trkpt>
      <trkpt lat="45.77341" lon="4.03208">
        <ele>398</ele>
        <time>2016-04-22T08:59:33Z</time>
      </trkpt>
      <trkpt lat="45.77336" lon="4.03209">
        <ele>398</ele>
        <time>2016-04-22T08:59:38Z</time>
      </trkpt>
      <trkpt lat="45.77327" lon="4.03207">
        <ele>398</ele>
        <time>2016-04-22T08:59:46Z</time>
      </trkpt>
      <trkpt lat="45.77303" lon="4.03217">
        <ele>397</ele>
        <time>2016-04-22T09:00:07Z</time>
      </trkpt>
      <trkpt lat="45.77292" lon="4.03232">
        <ele>397</ele>
        <time>2016-04-22T09:00:20Z</time>
      </trkpt>
      <trkpt lat="45.77283" lon="4.03249">
        <ele>396</ele>
        <time>2016-04-22T09:00:36Z</time>
      </trkpt>
      <trkpt lat="45.77279" lon="4.0327">
        <ele>395</ele>
        <time>2016-04-22T09:00:55Z</time>
      </trkpt>
      <trkpt lat="45.77274" lon="4.03273">
        <ele>395</ele>
        <time>2016-04-22T09:01:00Z</time>
      </trkpt>
      <trkpt lat="45.77273" lon="4.03279">
        <ele>395</ele>
        <time>2016-04-22T09:01:04Z</time>
      </trkpt>
      <trkpt lat="45.7727" lon="4.0333">
        <ele>393</ele>
        <time>2016-04-22T09:01:35Z</time>
      </trkpt>
      <trkpt lat="45.77271" lon="4.03366">
        <ele>392</ele>
        <time>2016-04-22T09:01:57Z</time>
      </trkpt>
      <trkpt lat="45.77266" lon="4.03387">
        <ele>393</ele>
        <time>2016-04-22T09:02:10Z</time>
      </trkpt>
      <trkpt lat="45.77259" lon="4.03428">
        <ele>391</ele>
        <time>2016-04-22T09:02:35Z</time>
      </trkpt>
      <trkpt lat="45.77267" lon="4.03449">
        <ele>390</ele>
        <time>2016-04-22T09:02:54Z</time>
      </trkpt>
      <trkpt lat="45.77271" lon="4.03453">
        <ele>390</ele>
        <time>2016-04-22T09:02:58Z</time>
      </trkpt>
      <trkpt lat="45.77275" lon="4.03456">
        <ele>391</ele>
        <time>2016-04-22T09:03:02Z</time>
      </trkpt>
      <trkpt lat="45.7728" lon="4.03459">
        <ele>391</ele>
        <time>2016-04-22T09:03:06Z</time>
      </trkpt>
      <trkpt lat="45.77285" lon="4.03461">
        <ele>389</ele>
        <time>2016-04-22T09:03:10Z</time>
      </trkpt>
      <trkpt lat="45.77294" lon="4.03466">
        <ele>389</ele>
        <time>2016-04-22T09:03:18Z</time>
      </trkpt>
      <trkpt lat="45.77293" lon="4.03473">
        <ele>388</ele>
        <time>2016-04-22T09:03:22Z</time>
      </trkpt>
      <trkpt lat="45.77286" lon="4.03483">
        <ele>388</ele>
        <time>2016-04-22T09:03:30Z</time>
      </trkpt>
      <trkpt lat="45.77282" lon="4.03489">
        <ele>388</ele>
        <time>2016-04-22T09:03:35Z</time>
      </trkpt>
      <trkpt lat="45.77276" lon="4.035">
        <ele>388</ele>
        <time>2016-04-22T09:03:43Z</time>
      </trkpt>
      <trkpt lat="45.77249" lon="4.03543">
        <ele>386</ele>
        <time>2016-04-22T09:04:15Z</time>
      </trkpt>
      <trkpt lat="45.77236" lon="4.03565">
        <ele>384</ele>
        <time>2016-04-22T09:04:33Z</time>
      </trkpt>
      <trkpt lat="45.77231" lon="4.03568">
        <ele>384</ele>
        <time>2016-04-22T09:04:38Z</time>
      </trkpt>
      <trkpt lat="45.77213" lon="4.03556">
        <ele>383</ele>
        <time>2016-04-22T09:04:55Z</time>
      </trkpt>
      <trkpt lat="45.77182" lon="4.03529">
        <ele>385</ele>
        <time>2016-04-22T09:05:29Z</time>
      </trkpt>
      <trkpt lat="45.77151" lon="4.03505">
        <ele>386</ele>
        <time>2016-04-22T09:06:00Z</time>
      </trkpt>
      <trkpt lat="45.77122" lon="4.03493">
        <ele>387</ele>
        <time>2016-04-22T09:06:26Z</time>
      </trkpt>
      <trkpt lat="45.77086" lon="4.03492">
        <ele>386</ele>
        <time>2016-04-22T09:06:57Z</time>
      </trkpt>
      <trkpt lat="45.77071" lon="4.03491">
        <ele>386</ele>
        <time>2016-04-22T09:07:09Z</time>
      </trkpt>
      <trkpt lat="45.77035" lon="4.03486">
        <ele>386</ele>
        <time>2016-04-22T09:07:42Z</time>
      </trkpt>
      <trkpt lat="45.7703" lon="4.03486">
        <ele>386</ele>
        <time>2016-04-22T09:07:47Z</time>
      </trkpt>
      <trkpt lat="45.77027" lon="4.03483">
        <ele>386</ele>
        <time>2016-04-22T09:07:55Z</time>
      </trkpt>
      <trkpt lat="45.77022" lon="4.03481">
        <ele>387</ele>
        <time>2016-04-22T09:08:29Z</time>
      </trkpt>
      <trkpt lat="45.77017" lon="4.03479">
        <ele>387</ele>
        <time>2016-04-22T09:08:35Z</time>
      </trkpt>
      <trkpt lat="45.77013" lon="4.03478">
        <ele>387</ele>
        <time>2016-04-22T09:08:39Z</time>
      </trkpt>
      <trkpt lat="45.77008" lon="4.03476">
        <ele>387</ele>
        <time>2016-04-22T09:08:43Z</time>
      </trkpt>
      <trkpt lat="45.77003" lon="4.03475">
        <ele>386</ele>
        <time>2016-04-22T09:08:47Z</time>
      </trkpt>
      <trkpt lat="45.76998" lon="4.03475">
        <ele>386</ele>
        <time>2016-04-22T09:08:51Z</time>
      </trkpt>
      <trkpt lat="45.76962" lon="4.03464">
        <ele>387</ele>
        <time>2016-04-22T09:09:22Z</time>
      </trkpt>
      <trkpt lat="45.76926" lon="4.03454">
        <ele>387</ele>
        <time>2016-04-22T09:09:55Z</time>
      </trkpt>
      <trkpt lat="45.76911" lon="4.03452">
        <ele>387</ele>
        <time>2016-04-22T09:10:08Z</time>
      </trkpt>
      <trkpt lat="45.76912" lon="4.03445">
        <ele>386</ele>
        <time>2016-04-22T09:10:19Z</time>
      </trkpt>
      <trkpt lat="45.7691" lon="4.03442">
        <ele>386</ele>
        <time>2016-04-22T09:10:36Z</time>
      </trkpt>
      <trkpt lat="45.76906" lon="4.03446">
        <ele>386</ele>
        <time>2016-04-22T09:10:40Z</time>
      </trkpt>
      <trkpt lat="45.76901" lon="4.03447">
        <ele>385</ele>
        <time>2016-04-22T09:10:44Z</time>
      </trkpt>
      <trkpt lat="45.76891" lon="4.03445">
        <ele>384</ele>
        <time>2016-04-22T09:10:52Z</time>
      </trkpt>
      <trkpt lat="45.76859" lon="4.0343">
        <ele>385</ele>
        <time>2016-04-22T09:11:23Z</time>
      </trkpt>
      <trkpt lat="45.76835" lon="4.03422">
        <ele>385</ele>
        <time>2016-04-22T09:11:45Z</time>
      </trkpt>
      <trkpt lat="45.7683" lon="4.03423">
        <ele>385</ele>
        <time>2016-04-22T09:11:51Z</time>
      </trkpt>
      <trkpt lat="45.76827" lon="4.03421">
        <ele>386</ele>
        <time>2016-04-22T09:12:03Z</time>
      </trkpt>
      <trkpt lat="45.76822" lon="4.03421">
        <ele>386</ele>
        <time>2016-04-22T09:12:07Z</time>
      </trkpt>
      <trkpt lat="45.76807" lon="4.03418">
        <ele>385</ele>
        <time>2016-04-22T09:12:20Z</time>
      </trkpt>
      <trkpt lat="45.76792" lon="4.03413">
        <ele>386</ele>
        <time>2016-04-22T09:12:32Z</time>
      </trkpt>
      <trkpt lat="45.76767" lon="4.03405">
        <ele>386</ele>
        <time>2016-04-22T09:12:52Z</time>
      </trkpt>
      <trkpt lat="45.76762" lon="4.03403">
        <ele>386</ele>
        <time>2016-04-22T09:12:56Z</time>
      </trkpt>
      <trkpt lat="45.76747" lon="4.03398">
        <ele>386</ele>
        <time>2016-04-22T09:13:09Z</time>
      </trkpt>
      <trkpt lat="45.76732" lon="4.03393">
        <ele>385</ele>
        <time>2016-04-22T09:13:22Z</time>
      </trkpt>
      <trkpt lat="45.76694" lon="4.03383">
        <ele>386</ele>
        <time>2016-04-22T09:13:55Z</time>
      </trkpt>
      <trkpt lat="45.76653" lon="4.03371">
        <ele>385</ele>
        <time>2016-04-22T09:14:27Z</time>
      </trkpt>
      <trkpt lat="45.76619" lon="4.03361">
        <ele>385</ele>
        <time>2016-04-22T09:14:58Z</time>
      </trkpt>
      <trkpt lat="45.7661" lon="4.03357">
        <ele>385</ele>
        <time>2016-04-22T09:15:06Z</time>
      </trkpt>
      <trkpt lat="45.76569" lon="4.03346">
        <ele>385</ele>
        <time>2016-04-22T09:15:39Z</time>
      </trkpt>
      <trkpt lat="45.76555" lon="4.0334">
        <ele>385</ele>
        <time>2016-04-22T09:15:53Z</time>
      </trkpt>
      <trkpt lat="45.7655" lon="4.03337">
        <ele>384</ele>
        <time>2016-04-22T09:15:58Z</time>
      </trkpt>
      <trkpt lat="45.76545" lon="4.03335">
        <ele>384</ele>
        <time>2016-04-22T09:16:02Z</time>
      </trkpt>
      <trkpt lat="45.76535" lon="4.03333">
        <ele>384</ele>
        <time>2016-04-22T09:16:11Z</time>
      </trkpt>
      <trkpt lat="45.76497" lon="4.03324">
        <ele>383</ele>
        <time>2016-04-22T09:16:43Z</time>
      </trkpt>
      <trkpt lat="45.76467" lon="4.03333">
        <ele>381</ele>
        <time>2016-04-22T09:17:08Z</time>
      </trkpt>
      <trkpt lat="45.76463" lon="4.03336">
        <ele>381</ele>
        <time>2016-04-22T09:17:12Z</time>
      </trkpt>
      <trkpt lat="45.76453" lon="4.0334">
        <ele>381</ele>
        <time>2016-04-22T09:17:20Z</time>
      </trkpt>
      <trkpt lat="45.76448" lon="4.03343">
        <ele>380</ele>
        <time>2016-04-22T09:17:24Z</time>
      </trkpt>
      <trkpt lat="45.76444" lon="4.03345">
        <ele>381</ele>
        <time>2016-04-22T09:17:28Z</time>
      </trkpt>
      <trkpt lat="45.76406" lon="4.03363">
        <ele>380</ele>
        <time>2016-04-22T09:18:00Z</time>
      </trkpt>
      <trkpt lat="45.76369" lon="4.03382">
        <ele>379</ele>
        <time>2016-04-22T09:18:33Z</time>
      </trkpt>
      <trkpt lat="45.76345" lon="4.03394">
        <ele>380</ele>
        <time>2016-04-22T09:18:54Z</time>
      </trkpt>
      <trkpt lat="45.76316" lon="4.03408">
        <ele>377</ele>
        <time>2016-04-22T09:19:27Z</time>
      </trkpt>
      <trkpt lat="45.76278" lon="4.03432">
        <ele>376</ele>
        <time>2016-04-22T09:19:59Z</time>
      </trkpt>
      <trkpt lat="45.7624" lon="4.03452">
        <ele>377</ele>
        <time>2016-04-22T09:20:32Z</time>
      </trkpt>
      <trkpt lat="45.76222" lon="4.03461">
        <ele>377</ele>
        <time>2016-04-22T09:20:48Z</time>
      </trkpt>
      <trkpt lat="45.76208" lon="4.03464">
        <ele>375</ele>
        <time>2016-04-22T09:21:03Z</time>
      </trkpt>
      <trkpt lat="45.76203" lon="4.03467">
        <ele>375</ele>
        <time>2016-04-22T09:21:08Z</time>
      </trkpt>
      <trkpt lat="45.76184" lon="4.03476">
        <ele>375</ele>
        <time>2016-04-22T09:21:24Z</time>
      </trkpt>
      <trkpt lat="45.76179" lon="4.03478">
        <ele>375</ele>
        <time>2016-04-22T09:21:29Z</time>
      </trkpt>
      <trkpt lat="45.76164" lon="4.03484">
        <ele>374</ele>
        <time>2016-04-22T09:21:42Z</time>
      </trkpt>
      <trkpt lat="45.7616" lon="4.03487">
        <ele>375</ele>
        <time>2016-04-22T09:21:46Z</time>
      </trkpt>
      <trkpt lat="45.7612" lon="4.03506">
        <ele>374</ele>
        <time>2016-04-22T09:22:19Z</time>
      </trkpt>
      <trkpt lat="45.76105" lon="4.03513">
        <ele>373</ele>
        <time>2016-04-22T09:22:33Z</time>
      </trkpt>
      <trkpt lat="45.76068" lon="4.03537">
        <ele>373</ele>
        <time>2016-04-22T09:23:05Z</time>
      </trkpt>
      <trkpt lat="45.76041" lon="4.03553">
        <ele>373</ele>
        <time>2016-04-22T09:23:29Z</time>
      </trkpt>
      <trkpt lat="45.76019" lon="4.03561">
        <ele>376</ele>
        <time>2016-04-22T09:23:48Z</time>
      </trkpt>
      <trkpt lat="45.76014" lon="4.03563">
        <ele>376</ele>
        <time>2016-04-22T09:23:52Z</time>
      </trkpt>
      <trkpt lat="45.76005" lon="4.03568">
        <ele>376</ele>
        <time>2016-04-22T09:24:06Z</time>
      </trkpt>
      <trkpt lat="45.75982" lon="4.03582">
        <ele>376</ele>
        <time>2016-04-22T09:24:36Z</time>
      </trkpt>
      <trkpt lat="45.75972" lon="4.03589">
        <ele>376</ele>
        <time>2016-04-22T09:24:43Z</time>
      </trkpt>
      <trkpt lat="45.75963" lon="4.03594">
        <ele>375</ele>
        <time>2016-04-22T09:24:53Z</time>
      </trkpt>
      <trkpt lat="45.75924" lon="4.03611">
        <ele>376</ele>
        <time>2016-04-22T09:25:25Z</time>
      </trkpt>
      <trkpt lat="45.75884" lon="4.03632">
        <ele>375</ele>
        <time>2016-04-22T09:26:00Z</time>
      </trkpt>
      <trkpt lat="45.75871" lon="4.03638">
        <ele>374</ele>
        <time>2016-04-22T09:26:12Z</time>
      </trkpt>
      <trkpt lat="45.7586" lon="4.03643">
        <ele>373</ele>
        <time>2016-04-22T09:26:22Z</time>
      </trkpt>
      <trkpt lat="45.75826" lon="4.03659">
        <ele>373</ele>
        <time>2016-04-22T09:26:53Z</time>
      </trkpt>
      <trkpt lat="45.75789" lon="4.0368">
        <ele>373</ele>
        <time>2016-04-22T09:27:24Z</time>
      </trkpt>
      <trkpt lat="45.75754" lon="4.03698">
        <ele>372</ele>
        <time>2016-04-22T09:27:56Z</time>
      </trkpt>
      <trkpt lat="45.75739" lon="4.03705">
        <ele>371</ele>
        <time>2016-04-22T09:28:09Z</time>
      </trkpt>
      <trkpt lat="45.7573" lon="4.0371">
        <ele>371</ele>
        <time>2016-04-22T09:28:17Z</time>
      </trkpt>
      <trkpt lat="45.75705" lon="4.03723">
        <ele>370</ele>
        <time>2016-04-22T09:28:38Z</time>
      </trkpt>
      <trkpt lat="45.75691" lon="4.0373">
        <ele>371</ele>
        <time>2016-04-22T09:28:49Z</time>
      </trkpt>
      <trkpt lat="45.75677" lon="4.03736">
        <ele>370</ele>
        <time>2016-04-22T09:29:02Z</time>
      </trkpt>
      <trkpt lat="45.75639" lon="4.03756">
        <ele>370</ele>
        <time>2016-04-22T09:29:33Z</time>
      </trkpt>
      <trkpt lat="45.75629" lon="4.03758">
        <ele>370</ele>
        <time>2016-04-22T09:29:44Z</time>
      </trkpt>
      <trkpt lat="45.75591" lon="4.03781">
        <ele>369</ele>
        <time>2016-04-22T09:30:17Z</time>
      </trkpt>
      <trkpt lat="45.75582" lon="4.03785">
        <ele>369</ele>
        <time>2016-04-22T09:30:26Z</time>
      </trkpt>
      <trkpt lat="45.75567" lon="4.0379">
        <ele>368</ele>
        <time>2016-04-22T09:30:41Z</time>
      </trkpt>
      <trkpt lat="45.7554" lon="4.03803">
        <ele>368</ele>
        <time>2016-04-22T09:31:19Z</time>
      </trkpt>
      <trkpt lat="45.75502" lon="4.03823">
        <ele>367</ele>
        <time>2016-04-22T09:31:52Z</time>
      </trkpt>
      <trkpt lat="45.75473" lon="4.03837">
        <ele>367</ele>
        <time>2016-04-22T09:32:22Z</time>
      </trkpt>
      <trkpt lat="45.75464" lon="4.03843">
        <ele>367</ele>
        <time>2016-04-22T09:32:31Z</time>
      </trkpt>
      <trkpt lat="45.75463" lon="4.03846">
        <ele>367</ele>
        <time>2016-04-22T09:32:43Z</time>
      </trkpt>
      <trkpt lat="45.75458" lon="4.03848">
        <ele>366</ele>
        <time>2016-04-22T09:32:49Z</time>
      </trkpt>
      <trkpt lat="45.75426" lon="4.03872">
        <ele>366</ele>
        <time>2016-04-22T09:33:23Z</time>
      </trkpt>
      <trkpt lat="45.75421" lon="4.03875">
        <ele>366</ele>
        <time>2016-04-22T09:33:29Z</time>
      </trkpt>
      <trkpt lat="45.75416" lon="4.03875">
        <ele>369</ele>
        <time>2016-04-22T09:33:37Z</time>
      </trkpt>
      <trkpt lat="45.75387" lon="4.03887">
        <ele>369</ele>
        <time>2016-04-22T09:34:07Z</time>
      </trkpt>
      <trkpt lat="45.75357" lon="4.03907">
        <ele>370</ele>
        <time>2016-04-22T09:34:38Z</time>
      </trkpt>
      <trkpt lat="45.75347" lon="4.03907">
        <ele>370</ele>
        <time>2016-04-22T09:34:50Z</time>
      </trkpt>
      <trkpt lat="45.75342" lon="4.0391">
        <ele>369</ele>
        <time>2016-04-22T09:34:57Z</time>
      </trkpt>
      <trkpt lat="45.75309" lon="4.03921">
        <ele>369</ele>
        <time>2016-04-22T09:35:30Z</time>
      </trkpt>
      <trkpt lat="45.75305" lon="4.03924">
        <ele>370</ele>
        <time>2016-04-22T09:35:36Z</time>
      </trkpt>
      <trkpt lat="45.75269" lon="4.03945">
        <ele>370</ele>
        <time>2016-04-22T09:36:10Z</time>
      </trkpt>
      <trkpt lat="45.75237" lon="4.03961">
        <ele>371</ele>
        <time>2016-04-22T09:36:42Z</time>
      </trkpt>
      <trkpt lat="45.75232" lon="4.03963">
        <ele>371</ele>
        <time>2016-04-22T09:36:47Z</time>
      </trkpt>
      <trkpt lat="45.75199" lon="4.03981">
        <ele>372</ele>
        <time>2016-04-22T09:37:21Z</time>
      </trkpt>
      <trkpt lat="45.75166" lon="4.03996">
        <ele>373</ele>
        <time>2016-04-22T09:37:51Z</time>
      </trkpt>
      <trkpt lat="45.75131" lon="4.04013">
        <ele>374</ele>
        <time>2016-04-22T09:38:24Z</time>
      </trkpt>
      <trkpt lat="45.75098" lon="4.04031">
        <ele>376</ele>
        <time>2016-04-22T09:38:57Z</time>
      </trkpt>
      <trkpt lat="45.75064" lon="4.04047">
        <ele>379</ele>
        <time>2016-04-22T09:39:31Z</time>
      </trkpt>
      <trkpt lat="45.75059" lon="4.04049">
        <ele>379</ele>
        <time>2016-04-22T09:39:36Z</time>
      </trkpt>
      <trkpt lat="45.75055" lon="4.04052">
        <ele>379</ele>
        <time>2016-04-22T09:39:39Z</time>
      </trkpt>
      <trkpt lat="45.7503" lon="4.04068">
        <ele>381</ele>
        <time>2016-04-22T09:40:09Z</time>
      </trkpt>
      <trkpt lat="45.74993" lon="4.04087">
        <ele>383</ele>
        <time>2016-04-22T09:40:43Z</time>
      </trkpt>
      <trkpt lat="45.74989" lon="4.04089">
        <ele>382</ele>
        <time>2016-04-22T09:40:47Z</time>
      </trkpt>
      <trkpt lat="45.74956" lon="4.04104">
        <ele>384</ele>
        <time>2016-04-22T09:41:18Z</time>
      </trkpt>
      <trkpt lat="45.74919" lon="4.04124">
        <ele>386</ele>
        <time>2016-04-22T09:41:53Z</time>
      </trkpt>
      <trkpt lat="45.74885" lon="4.04139">
        <ele>387</ele>
        <time>2016-04-22T09:42:24Z</time>
      </trkpt>
      <trkpt lat="45.74876" lon="4.04144">
        <ele>387</ele>
        <time>2016-04-22T09:42:34Z</time>
      </trkpt>
      <trkpt lat="45.74846" lon="4.04159">
        <ele>389</ele>
        <time>2016-04-22T09:43:05Z</time>
      </trkpt>
      <trkpt lat="45.74837" lon="4.04164">
        <ele>390</ele>
        <time>2016-04-22T09:43:14Z</time>
      </trkpt>
      <trkpt lat="45.74832" lon="4.04167">
        <ele>390</ele>
        <time>2016-04-22T09:43:19Z</time>
      </trkpt>
      <trkpt lat="45.74799" lon="4.04183">
        <ele>391</ele>
        <time>2016-04-22T09:43:50Z</time>
      </trkpt>
      <trkpt lat="45.74794" lon="4.04184">
        <ele>391</ele>
        <time>2016-04-22T09:43:54Z</time>
      </trkpt>
      <trkpt lat="45.74766" lon="4.042">
        <ele>392</ele>
        <time>2016-04-22T09:44:28Z</time>
      </trkpt>
      <trkpt lat="45.74728" lon="4.0422">
        <ele>394</ele>
        <time>2016-04-22T09:45:02Z</time>
      </trkpt>
      <trkpt lat="45.74724" lon="4.04222">
        <ele>394</ele>
        <time>2016-04-22T09:45:06Z</time>
      </trkpt>
      <trkpt lat="45.7469" lon="4.04238">
        <ele>395</ele>
        <time>2016-04-22T09:45:37Z</time>
      </trkpt>
      <trkpt lat="45.74681" lon="4.04242">
        <ele>395</ele>
        <time>2016-04-22T09:45:45Z</time>
      </trkpt>
      <trkpt lat="45.74675" lon="4.04243">
        <ele>396</ele>
        <time>2016-04-22T09:45:50Z</time>
      </trkpt>
      <trkpt lat="45.74659" lon="4.04244">
        <ele>396</ele>
        <time>2016-04-22T09:46:09Z</time>
      </trkpt>
      <trkpt lat="45.74655" lon="4.04245">
        <ele>396</ele>
        <time>2016-04-22T09:46:13Z</time>
      </trkpt>
      <trkpt lat="45.74644" lon="4.04244">
        <ele>396</ele>
        <time>2016-04-22T09:46:23Z</time>
      </trkpt>
      <trkpt lat="45.74624" lon="4.04244">
        <ele>396</ele>
        <time>2016-04-22T09:46:45Z</time>
      </trkpt>
      <trkpt lat="45.74619" lon="4.04243">
        <ele>397</ele>
        <time>2016-04-22T09:47:08Z</time>
      </trkpt>
      <trkpt lat="45.74614" lon="4.04243">
        <ele>397</ele>
        <time>2016-04-22T09:47:12Z</time>
      </trkpt>
      <trkpt lat="45.74595" lon="4.0424">
        <ele>397</ele>
        <time>2016-04-22T09:47:29Z</time>
      </trkpt>
      <trkpt lat="45.74588" lon="4.0424">
        <ele>398</ele>
        <time>2016-04-22T09:47:45Z</time>
      </trkpt>
      <trkpt lat="45.74568" lon="4.04237">
        <ele>396</ele>
        <time>2016-04-22T09:48:02Z</time>
      </trkpt>
      <trkpt lat="45.7454" lon="4.04232">
        <ele>397</ele>
        <time>2016-04-22T09:50:55Z</time>
      </trkpt>
      <trkpt lat="45.7453" lon="4.04232">
        <ele>397</ele>
        <time>2016-04-22T09:51:06Z</time>
      </trkpt>
      <trkpt lat="45.74494" lon="4.04229">
        <ele>396</ele>
        <time>2016-04-22T09:51:37Z</time>
      </trkpt>
      <trkpt lat="45.74484" lon="4.04227">
        <ele>397</ele>
        <time>2016-04-22T09:51:46Z</time>
      </trkpt>
      <trkpt lat="45.74474" lon="4.04223">
        <ele>398</ele>
        <time>2016-04-22T09:51:56Z</time>
      </trkpt>
      <trkpt lat="45.74455" lon="4.0422">
        <ele>397</ele>
        <time>2016-04-22T09:52:13Z</time>
      </trkpt>
      <trkpt lat="45.7445" lon="4.04219">
        <ele>397</ele>
        <time>2016-04-22T09:52:18Z</time>
      </trkpt>
      <trkpt lat="45.74435" lon="4.04216">
        <ele>396</ele>
        <time>2016-04-22T09:52:34Z</time>
      </trkpt>
      <trkpt lat="45.74413" lon="4.04214">
        <ele>397</ele>
        <time>2016-04-22T09:52:52Z</time>
      </trkpt>
      <trkpt lat="45.74388" lon="4.04211">
        <ele>396</ele>
        <time>2016-04-22T09:53:14Z</time>
      </trkpt>
      <trkpt lat="45.74352" lon="4.0421">
        <ele>396</ele>
        <time>2016-04-22T09:53:44Z</time>
      </trkpt>
      <trkpt lat="45.74328" lon="4.04211">
        <ele>395</ele>
        <time>2016-04-22T09:54:05Z</time>
      </trkpt>
      <trkpt lat="45.74322" lon="4.04213">
        <ele>395</ele>
        <time>2016-04-22T09:54:09Z</time>
      </trkpt>
      <trkpt lat="45.74284" lon="4.04217">
        <ele>394</ele>
        <time>2016-04-22T09:54:42Z</time>
      </trkpt>
      <trkpt lat="45.74248" lon="4.04217">
        <ele>395</ele>
        <time>2016-04-22T09:55:13Z</time>
      </trkpt>
      <trkpt lat="45.74214" lon="4.04221">
        <ele>395</ele>
        <time>2016-04-22T09:55:43Z</time>
      </trkpt>
      <trkpt lat="45.74186" lon="4.04229">
        <ele>396</ele>
        <time>2016-04-22T09:56:38Z</time>
      </trkpt>
      <trkpt lat="45.74167" lon="4.04232">
        <ele>395</ele>
        <time>2016-04-22T09:56:55Z</time>
      </trkpt>
      <trkpt lat="45.74153" lon="4.04235">
        <ele>397</ele>
        <time>2016-04-22T09:57:07Z</time>
      </trkpt>
      <trkpt lat="45.74143" lon="4.04239">
        <ele>397</ele>
        <time>2016-04-22T09:57:15Z</time>
      </trkpt>
      <trkpt lat="45.74124" lon="4.04244">
        <ele>395</ele>
        <time>2016-04-22T09:57:32Z</time>
      </trkpt>
      <trkpt lat="45.7412" lon="4.04245">
        <ele>394</ele>
        <time>2016-04-22T09:57:36Z</time>
      </trkpt>
      <trkpt lat="45.74115" lon="4.04246">
        <ele>394</ele>
        <time>2016-04-22T09:57:41Z</time>
      </trkpt>
      <trkpt lat="45.7411" lon="4.04247">
        <ele>394</ele>
        <time>2016-04-22T09:57:45Z</time>
      </trkpt>
      <trkpt lat="45.74085" lon="4.04253">
        <ele>393</ele>
        <time>2016-04-22T09:58:07Z</time>
      </trkpt>
      <trkpt lat="45.74045" lon="4.04265">
        <ele>397</ele>
        <time>2016-04-22T09:58:38Z</time>
      </trkpt>
      <trkpt lat="45.74004" lon="4.04266">
        <ele>398</ele>
        <time>2016-04-22T09:59:11Z</time>
      </trkpt>
      <trkpt lat="45.7399" lon="4.04266">
        <ele>398</ele>
        <time>2016-04-22T09:59:23Z</time>
      </trkpt>
      <trkpt lat="45.73985" lon="4.04264">
        <ele>398</ele>
        <time>2016-04-22T09:59:28Z</time>
      </trkpt>
      <trkpt lat="45.7398" lon="4.04262">
        <ele>398</ele>
        <time>2016-04-22T09:59:33Z</time>
      </trkpt>
      <trkpt lat="45.7396" lon="4.04256">
        <ele>395</ele>
        <time>2016-04-22T09:59:50Z</time>
      </trkpt>
      <trkpt lat="45.73939" lon="4.04251">
        <ele>394</ele>
        <time>2016-04-22T10:00:06Z</time>
      </trkpt>
      <trkpt lat="45.73934" lon="4.0425">
        <ele>395</ele>
        <time>2016-04-22T10:00:10Z</time>
      </trkpt>
      <trkpt lat="45.73901" lon="4.04247">
        <ele>394</ele>
        <time>2016-04-22T10:00:38Z</time>
      </trkpt>
      <trkpt lat="45.73896" lon="4.04246">
        <ele>394</ele>
        <time>2016-04-22T10:00:43Z</time>
      </trkpt>
      <trkpt lat="45.73891" lon="4.04246">
        <ele>394</ele>
        <time>2016-04-22T10:00:47Z</time>
      </trkpt>
      <trkpt lat="45.73886" lon="4.04245">
        <ele>394</ele>
        <time>2016-04-22T10:00:51Z</time>
      </trkpt>
      <trkpt lat="45.73857" lon="4.04237">
        <ele>394</ele>
        <time>2016-04-22T10:01:17Z</time>
      </trkpt>
      <trkpt lat="45.73854" lon="4.04231">
        <ele>394</ele>
        <time>2016-04-22T10:01:22Z</time>
      </trkpt>
      <trkpt lat="45.73854" lon="4.04197">
        <ele>394</ele>
        <time>2016-04-22T10:01:42Z</time>
      </trkpt>
      <trkpt lat="45.73847" lon="4.04187">
        <ele>394</ele>
        <time>2016-04-22T10:01:51Z</time>
      </trkpt>
      <trkpt lat="45.73845" lon="4.04152">
        <ele>394</ele>
        <time>2016-04-22T10:02:13Z</time>
      </trkpt>
      <trkpt lat="45.7384" lon="4.04152">
        <ele>394</ele>
        <time>2016-04-22T10:02:18Z</time>
      </trkpt>
      <trkpt lat="45.73824" lon="4.04156">
        <ele>394</ele>
        <time>2016-04-22T10:02:33Z</time>
      </trkpt>
      <trkpt lat="45.73819" lon="4.04158">
        <ele>394</ele>
        <time>2016-04-22T10:02:37Z</time>
      </trkpt>
      <trkpt lat="45.73779" lon="4.04162">
        <ele>393</ele>
        <time>2016-04-22T10:03:09Z</time>
      </trkpt>
      <trkpt lat="45.73745" lon="4.04168">
        <ele>392</ele>
        <time>2016-04-22T10:03:40Z</time>
      </trkpt>
      <trkpt lat="45.73724" lon="4.0417">
        <ele>391</ele>
        <time>2016-04-22T10:03:56Z</time>
      </trkpt>
      <trkpt lat="45.73719" lon="4.04171">
        <ele>391</ele>
        <time>2016-04-22T10:04:00Z</time>
      </trkpt>
      <trkpt lat="45.73703" lon="4.04175">
        <ele>391</ele>
        <time>2016-04-22T10:04:14Z</time>
      </trkpt>
      <trkpt lat="45.737" lon="4.04181">
        <ele>391</ele>
        <time>2016-04-22T10:04:20Z</time>
      </trkpt>
      <trkpt lat="45.73696" lon="4.04193">
        <ele>390</ele>
        <time>2016-04-22T10:04:28Z</time>
      </trkpt>
      <trkpt lat="45.73692" lon="4.04197">
        <ele>390</ele>
        <time>2016-04-22T10:04:32Z</time>
      </trkpt>
      <trkpt lat="45.73685" lon="4.04229">
        <ele>390</ele>
        <time>2016-04-22T10:04:52Z</time>
      </trkpt>
      <trkpt lat="45.73685" lon="4.04244">
        <ele>390</ele>
        <time>2016-04-22T10:05:02Z</time>
      </trkpt>
      <trkpt lat="45.73684" lon="4.04251">
        <ele>391</ele>
        <time>2016-04-22T10:05:06Z</time>
      </trkpt>
      <trkpt lat="45.73684" lon="4.04258">
        <ele>392</ele>
        <time>2016-04-22T10:05:10Z</time>
      </trkpt>
      <trkpt lat="45.73674" lon="4.04314">
        <ele>395</ele>
        <time>2016-04-22T10:05:43Z</time>
      </trkpt>
      <trkpt lat="45.7367" lon="4.04371">
        <ele>395</ele>
        <time>2016-04-22T10:06:17Z</time>
      </trkpt>
      <trkpt lat="45.73671" lon="4.04425">
        <ele>397</ele>
        <time>2016-04-22T10:06:50Z</time>
      </trkpt>
      <trkpt lat="45.73673" lon="4.04453">
        <ele>397</ele>
        <time>2016-04-22T10:07:06Z</time>
      </trkpt>
      <trkpt lat="45.73672" lon="4.04467">
        <ele>397</ele>
        <time>2016-04-22T10:07:14Z</time>
      </trkpt>
      <trkpt lat="45.73674" lon="4.04489">
        <ele>397</ele>
        <time>2016-04-22T10:07:27Z</time>
      </trkpt>
      <trkpt lat="45.73675" lon="4.04543">
        <ele>396</ele>
        <time>2016-04-22T10:08:00Z</time>
      </trkpt>
      <trkpt lat="45.73676" lon="4.04556">
        <ele>396</ele>
        <time>2016-04-22T10:08:08Z</time>
      </trkpt>
      <trkpt lat="45.73675" lon="4.04612">
        <ele>394</ele>
        <time>2016-04-22T10:08:41Z</time>
      </trkpt>
      <trkpt lat="45.73667" lon="4.04662">
        <ele>395</ele>
        <time>2016-04-22T10:09:11Z</time>
      </trkpt>
      <trkpt lat="45.73658" lon="4.0471">
        <ele>395</ele>
        <time>2016-04-22T10:09:42Z</time>
      </trkpt>
      <trkpt lat="45.73645" lon="4.04763">
        <ele>395</ele>
        <time>2016-04-22T10:10:15Z</time>
      </trkpt>
      <trkpt lat="45.7364" lon="4.04811">
        <ele>395</ele>
        <time>2016-04-22T10:10:45Z</time>
      </trkpt>
      <trkpt lat="45.73636" lon="4.04832">
        <ele>396</ele>
        <time>2016-04-22T10:10:58Z</time>
      </trkpt>
      <trkpt lat="45.73631" lon="4.04858">
        <ele>394</ele>
        <time>2016-04-22T10:11:14Z</time>
      </trkpt>
      <trkpt lat="45.73628" lon="4.04871">
        <ele>392</ele>
        <time>2016-04-22T10:11:22Z</time>
      </trkpt>
      <trkpt lat="45.73627" lon="4.04878">
        <ele>392</ele>
        <time>2016-04-22T10:11:26Z</time>
      </trkpt>
      <trkpt lat="45.73626" lon="4.04884">
        <ele>393</ele>
        <time>2016-04-22T10:11:30Z</time>
      </trkpt>
      <trkpt lat="45.73625" lon="4.04891">
        <ele>392</ele>
        <time>2016-04-22T10:11:34Z</time>
      </trkpt>
      <trkpt lat="45.73623" lon="4.04904">
        <ele>393</ele>
        <time>2016-04-22T10:11:42Z</time>
      </trkpt>
      <trkpt lat="45.7361" lon="4.04949">
        <ele>393</ele>
        <time>2016-04-22T10:12:12Z</time>
      </trkpt>
      <trkpt lat="45.73594" lon="4.05">
        <ele>393</ele>
        <time>2016-04-22T10:12:49Z</time>
      </trkpt>
      <trkpt lat="45.73582" lon="4.05033">
        <ele>392</ele>
        <time>2016-04-22T10:13:11Z</time>
      </trkpt>
      <trkpt lat="45.73579" lon="4.05039">
        <ele>392</ele>
        <time>2016-04-22T10:13:15Z</time>
      </trkpt>
      <trkpt lat="45.73577" lon="4.05045">
        <ele>392</ele>
        <time>2016-04-22T10:13:19Z</time>
      </trkpt>
      <trkpt lat="45.73555" lon="4.05093">
        <ele>391</ele>
        <time>2016-04-22T10:13:53Z</time>
      </trkpt>
      <trkpt lat="45.73552" lon="4.051">
        <ele>391</ele>
        <time>2016-04-22T10:13:58Z</time>
      </trkpt>
      <trkpt lat="45.73533" lon="4.0515">
        <ele>391</ele>
        <time>2016-04-22T10:14:31Z</time>
      </trkpt>
      <trkpt lat="45.73517" lon="4.05203">
        <ele>392</ele>
        <time>2016-04-22T10:15:04Z</time>
      </trkpt>
      <trkpt lat="45.735" lon="4.05254">
        <ele>392</ele>
        <time>2016-04-22T10:15:37Z</time>
      </trkpt>
      <trkpt lat="45.73482" lon="4.053">
        <ele>392</ele>
        <time>2016-04-22T10:16:09Z</time>
      </trkpt>
      <trkpt lat="45.73465" lon="4.05344">
        <ele>393</ele>
        <time>2016-04-22T10:16:41Z</time>
      </trkpt>
      <trkpt lat="45.7345" lon="4.0539">
        <ele>393</ele>
        <time>2016-04-22T10:17:13Z</time>
      </trkpt>
      <trkpt lat="45.73449" lon="4.05417">
        <ele>395</ele>
        <time>2016-04-22T10:17:31Z</time>
      </trkpt>
      <trkpt lat="45.73448" lon="4.05433">
        <ele>394</ele>
        <time>2016-04-22T10:17:41Z</time>
      </trkpt>
      <trkpt lat="45.73444" lon="4.05445">
        <ele>394</ele>
        <time>2016-04-22T10:17:49Z</time>
      </trkpt>
      <trkpt lat="45.73442" lon="4.05451">
        <ele>394</ele>
        <time>2016-04-22T10:17:54Z</time>
      </trkpt>
      <trkpt lat="45.73437" lon="4.05502">
        <ele>396</ele>
        <time>2016-04-22T10:18:27Z</time>
      </trkpt>
      <trkpt lat="45.73435" lon="4.05523">
        <ele>396</ele>
        <time>2016-04-22T10:18:40Z</time>
      </trkpt>
      <trkpt lat="45.73431" lon="4.05544">
        <ele>395</ele>
        <time>2016-04-22T10:18:54Z</time>
      </trkpt>
      <trkpt lat="45.73427" lon="4.05548">
        <ele>395</ele>
        <time>2016-04-22T10:18:58Z</time>
      </trkpt>
      <trkpt lat="45.73422" lon="4.05547">
        <ele>394</ele>
        <time>2016-04-22T10:19:05Z</time>
      </trkpt>
      <trkpt lat="45.73394" lon="4.05554">
        <ele>391</ele>
        <time>2016-04-22T10:19:36Z</time>
      </trkpt>
      <trkpt lat="45.73389" lon="4.05557">
        <ele>391</ele>
        <time>2016-04-22T10:19:41Z</time>
      </trkpt>
      <trkpt lat="45.73393" lon="4.05561">
        <ele>390</ele>
        <time>2016-04-22T10:20:39Z</time>
      </trkpt>
      <trkpt lat="45.73419" lon="4.05586">
        <ele>391</ele>
        <time>2016-04-22T10:21:08Z</time>
      </trkpt>
      <trkpt lat="45.73416" lon="4.05581">
        <ele>391</ele>
        <time>2016-04-22T10:21:24Z</time>
      </trkpt>
      <trkpt lat="45.73389" lon="4.05561">
        <ele>390</ele>
        <time>2016-04-22T10:21:52Z</time>
      </trkpt>
      <trkpt lat="45.73387" lon="4.05557">
        <ele>390</ele>
        <time>2016-04-22T10:21:59Z</time>
      </trkpt>
      <trkpt lat="45.73383" lon="4.05558">
        <ele>390</ele>
        <time>2016-04-22T10:22:10Z</time>
      </trkpt>
      <trkpt lat="45.73356" lon="4.05589">
        <ele>391</ele>
        <time>2016-04-22T10:22:42Z</time>
      </trkpt>
      <trkpt lat="45.73349" lon="4.05608">
        <ele>391</ele>
        <time>2016-04-22T10:22:56Z</time>
      </trkpt>
      <trkpt lat="45.73341" lon="4.05616">
        <ele>391</ele>
        <time>2016-04-22T10:23:05Z</time>
      </trkpt>
      <trkpt lat="45.73338" lon="4.05618">
        <ele>391</ele>
        <time>2016-04-22T10:23:14Z</time>
      </trkpt>
      <trkpt lat="45.73336" lon="4.05624">
        <ele>391</ele>
        <time>2016-04-22T10:23:28Z</time>
      </trkpt>
      <trkpt lat="45.73336" lon="4.05631">
        <ele>390</ele>
        <time>2016-04-22T10:23:36Z</time>
      </trkpt>
      <trkpt lat="45.73336" lon="4.05631">
        <ele>391</ele>
        <time>2016-04-22T11:07:14Z</time>
      </trkpt>
      <trkpt lat="45.73331" lon="4.05619">
        <ele>391</ele>
        <time>2016-04-22T11:07:27Z</time>
      </trkpt>
      <trkpt lat="45.73326" lon="4.05619">
        <ele>388</ele>
        <time>2016-04-22T11:07:36Z</time>
      </trkpt>
      <trkpt lat="45.73322" lon="4.05623">
        <ele>387</ele>
        <time>2016-04-22T11:07:44Z</time>
      </trkpt>
      <trkpt lat="45.7332" lon="4.05629">
        <ele>386</ele>
        <time>2016-04-22T11:07:49Z</time>
      </trkpt>
      <trkpt lat="45.73315" lon="4.05663">
        <ele>386</ele>
        <time>2016-04-22T11:08:14Z</time>
      </trkpt>
      <trkpt lat="45.73314" lon="4.0567">
        <ele>386</ele>
        <time>2016-04-22T11:08:19Z</time>
      </trkpt>
      <trkpt lat="45.73307" lon="4.05713">
        <ele>387</ele>
        <time>2016-04-22T11:08:54Z</time>
      </trkpt>
      <trkpt lat="45.73305" lon="4.05714">
        <ele>387</ele>
        <time>2016-04-22T11:09:17Z</time>
      </trkpt>
      <trkpt lat="45.73303" lon="4.05721">
        <ele>387</ele>
        <time>2016-04-22T11:09:38Z</time>
      </trkpt>
      <trkpt lat="45.733" lon="4.05733">
        <ele>386</ele>
        <time>2016-04-22T11:09:48Z</time>
      </trkpt>
      <trkpt lat="45.7328" lon="4.05753">
        <ele>385</ele>
        <time>2016-04-22T11:10:12Z</time>
      </trkpt>
      <trkpt lat="45.73274" lon="4.05772">
        <ele>384</ele>
        <time>2016-04-22T11:10:28Z</time>
      </trkpt>
      <trkpt lat="45.7327" lon="4.05775">
        <ele>384</ele>
        <time>2016-04-22T11:10:33Z</time>
      </trkpt>
      <trkpt lat="45.73265" lon="4.05779">
        <ele>383</ele>
        <time>2016-04-22T11:10:41Z</time>
      </trkpt>
      <trkpt lat="45.73236" lon="4.0579">
        <ele>381</ele>
        <time>2016-04-22T11:11:14Z</time>
      </trkpt>
      <trkpt lat="45.73208" lon="4.05806">
        <ele>379</ele>
        <time>2016-04-22T11:11:49Z</time>
      </trkpt>
      <trkpt lat="45.73205" lon="4.05805">
        <ele>377</ele>
        <time>2016-04-22T11:12:29Z</time>
      </trkpt>
      <trkpt lat="45.732" lon="4.05806">
        <ele>377</ele>
        <time>2016-04-22T11:12:34Z</time>
      </trkpt>
      <trkpt lat="45.73188" lon="4.0581">
        <ele>374</ele>
        <time>2016-04-22T11:13:00Z</time>
      </trkpt>
      <trkpt lat="45.73183" lon="4.0581">
        <ele>374</ele>
        <time>2016-04-22T11:13:06Z</time>
      </trkpt>
      <trkpt lat="45.73168" lon="4.0581">
        <ele>370</ele>
        <time>2016-04-22T11:13:38Z</time>
      </trkpt>
      <trkpt lat="45.73158" lon="4.05808">
        <ele>368</ele>
        <time>2016-04-22T11:13:48Z</time>
      </trkpt>
      <trkpt lat="45.73123" lon="4.05806">
        <ele>367</ele>
        <time>2016-04-22T11:14:21Z</time>
      </trkpt>
      <trkpt lat="45.73103" lon="4.05808">
        <ele>366</ele>
        <time>2016-04-22T11:14:41Z</time>
      </trkpt>
      <trkpt lat="45.73099" lon="4.05814">
        <ele>366</ele>
        <time>2016-04-22T11:14:47Z</time>
      </trkpt>
      <trkpt lat="45.73095" lon="4.05827">
        <ele>365</ele>
        <time>2016-04-22T11:15:00Z</time>
      </trkpt>
      <trkpt lat="45.73092" lon="4.05854">
        <ele>365</ele>
        <time>2016-04-22T11:15:27Z</time>
      </trkpt>
      <trkpt lat="45.73094" lon="4.05876">
        <ele>365</ele>
        <time>2016-04-22T11:15:41Z</time>
      </trkpt>
      <trkpt lat="45.73091" lon="4.05882">
        <ele>365</ele>
        <time>2016-04-22T11:15:45Z</time>
      </trkpt>
      <trkpt lat="45.73083" lon="4.05889">
        <ele>365</ele>
        <time>2016-04-22T11:15:54Z</time>
      </trkpt>
      <trkpt lat="45.73077" lon="4.0589">
        <ele>364</ele>
        <time>2016-04-22T11:15:59Z</time>
      </trkpt>
      <trkpt lat="45.73072" lon="4.05891">
        <ele>365</ele>
        <time>2016-04-22T11:16:04Z</time>
      </trkpt>
      <trkpt lat="45.73036" lon="4.05886">
        <ele>365</ele>
        <time>2016-04-22T11:16:37Z</time>
      </trkpt>
      <trkpt lat="45.7303" lon="4.05884">
        <ele>365</ele>
        <time>2016-04-22T11:16:42Z</time>
      </trkpt>
      <trkpt lat="45.73022" lon="4.0588">
        <ele>364</ele>
        <time>2016-04-22T11:17:16Z</time>
      </trkpt>
      <trkpt lat="45.7302" lon="4.05872">
        <ele>364</ele>
        <time>2016-04-22T11:18:19Z</time>
      </trkpt>
      <trkpt lat="45.73023" lon="4.05839">
        <ele>364</ele>
        <time>2016-04-22T11:18:40Z</time>
      </trkpt>
      <trkpt lat="45.73026" lon="4.05825">
        <ele>362</ele>
        <time>2016-04-22T11:18:49Z</time>
      </trkpt>
      <trkpt lat="45.73028" lon="4.0581">
        <ele>362</ele>
        <time>2016-04-22T11:18:57Z</time>
      </trkpt>
      <trkpt lat="45.7303" lon="4.05796">
        <ele>361</ele>
        <time>2016-04-22T11:19:05Z</time>
      </trkpt>
      <trkpt lat="45.73033" lon="4.05746">
        <ele>363</ele>
        <time>2016-04-22T11:19:39Z</time>
      </trkpt>
      <trkpt lat="45.73036" lon="4.05719">
        <ele>364</ele>
        <time>2016-04-22T11:19:55Z</time>
      </trkpt>
      <trkpt lat="45.73044" lon="4.05665">
        <ele>364</ele>
        <time>2016-04-22T11:20:29Z</time>
      </trkpt>
      <trkpt lat="45.73049" lon="4.05615">
        <ele>364</ele>
        <time>2016-04-22T11:21:01Z</time>
      </trkpt>
      <trkpt lat="45.73054" lon="4.0558">
        <ele>363</ele>
        <time>2016-04-22T11:21:23Z</time>
      </trkpt>
      <trkpt lat="45.73056" lon="4.05566">
        <ele>363</ele>
        <time>2016-04-22T11:21:32Z</time>
      </trkpt>
      <trkpt lat="45.73062" lon="4.05515">
        <ele>363</ele>
        <time>2016-04-22T11:22:05Z</time>
      </trkpt>
      <trkpt lat="45.7306" lon="4.0546">
        <ele>363</ele>
        <time>2016-04-22T11:22:45Z</time>
      </trkpt>
      <trkpt lat="45.73055" lon="4.05411">
        <ele>363</ele>
        <time>2016-04-22T11:23:15Z</time>
      </trkpt>
      <trkpt lat="45.73047" lon="4.05356">
        <ele>364</ele>
        <time>2016-04-22T11:23:50Z</time>
      </trkpt>
      <trkpt lat="45.73046" lon="4.0535">
        <ele>365</ele>
        <time>2016-04-22T11:23:56Z</time>
      </trkpt>
      <trkpt lat="45.73045" lon="4.05336">
        <ele>364</ele>
        <time>2016-04-22T11:24:05Z</time>
      </trkpt>
      <trkpt lat="45.73042" lon="4.05305">
        <ele>366</ele>
        <time>2016-04-22T11:24:37Z</time>
      </trkpt>
      <trkpt lat="45.73045" lon="4.05293">
        <ele>366</ele>
        <time>2016-04-22T11:24:45Z</time>
      </trkpt>
      <trkpt lat="45.73048" lon="4.05292">
        <ele>365</ele>
        <time>2016-04-22T11:25:41Z</time>
      </trkpt>
      <trkpt lat="45.73052" lon="4.05289">
        <ele>365</ele>
        <time>2016-04-22T11:25:56Z</time>
      </trkpt>
      <trkpt lat="45.73065" lon="4.05283">
        <ele>366</ele>
        <time>2016-04-22T11:26:10Z</time>
      </trkpt>
      <trkpt lat="45.73072" lon="4.05277">
        <ele>364</ele>
        <time>2016-04-22T11:26:31Z</time>
      </trkpt>
      <trkpt lat="45.73076" lon="4.05272">
        <ele>365</ele>
        <time>2016-04-22T11:26:36Z</time>
      </trkpt>
      <trkpt lat="45.73085" lon="4.05256">
        <ele>365</ele>
        <time>2016-04-22T11:26:51Z</time>
      </trkpt>
      <trkpt lat="45.73087" lon="4.05253">
        <ele>365</ele>
        <time>2016-04-22T11:26:59Z</time>
      </trkpt>
      <trkpt lat="45.73091" lon="4.05239">
        <ele>365</ele>
        <time>2016-04-22T11:27:11Z</time>
      </trkpt>
      <trkpt lat="45.73088" lon="4.05233">
        <ele>365</ele>
        <time>2016-04-22T11:27:21Z</time>
      </trkpt>
      <trkpt lat="45.73083" lon="4.05233">
        <ele>366</ele>
        <time>2016-04-22T11:27:26Z</time>
      </trkpt>
      <trkpt lat="45.73078" lon="4.05233">
        <ele>366</ele>
        <time>2016-04-22T11:27:32Z</time>
      </trkpt>
      <trkpt lat="45.73044" lon="4.05224">
        <ele>371</ele>
        <time>2016-04-22T11:28:05Z</time>
      </trkpt>
      <trkpt lat="45.73009" lon="4.05215">
        <ele>369</ele>
        <time>2016-04-22T11:28:35Z</time>
      </trkpt>
      <trkpt lat="45.72975" lon="4.05225">
        <ele>369</ele>
        <time>2016-04-22T11:29:08Z</time>
      </trkpt>
      <trkpt lat="45.72965" lon="4.05227">
        <ele>370</ele>
        <time>2016-04-22T11:29:19Z</time>
      </trkpt>
      <trkpt lat="45.72961" lon="4.05231">
        <ele>370</ele>
        <time>2016-04-22T11:29:23Z</time>
      </trkpt>
      <trkpt lat="45.72957" lon="4.05235">
        <ele>370</ele>
        <time>2016-04-22T11:29:27Z</time>
      </trkpt>
      <trkpt lat="45.72952" lon="4.05237">
        <ele>369</ele>
        <time>2016-04-22T11:29:32Z</time>
      </trkpt>
      <trkpt lat="45.72917" lon="4.05266">
        <ele>370</ele>
        <time>2016-04-22T11:30:06Z</time>
      </trkpt>
      <trkpt lat="45.72913" lon="4.0527">
        <ele>370</ele>
        <time>2016-04-22T11:30:11Z</time>
      </trkpt>
      <trkpt lat="45.72901" lon="4.05282">
        <ele>371</ele>
        <time>2016-04-22T11:30:25Z</time>
      </trkpt>
      <trkpt lat="45.72892" lon="4.05289">
        <ele>370</ele>
        <time>2016-04-22T11:30:33Z</time>
      </trkpt>
      <trkpt lat="45.72864" lon="4.05302">
        <ele>368</ele>
        <time>2016-04-22T11:31:02Z</time>
      </trkpt>
      <trkpt lat="45.72852" lon="4.05313">
        <ele>364</ele>
        <time>2016-04-22T11:31:15Z</time>
      </trkpt>
      <trkpt lat="45.72848" lon="4.05317">
        <ele>364</ele>
        <time>2016-04-22T11:31:19Z</time>
      </trkpt>
      <trkpt lat="45.72816" lon="4.0534">
        <ele>364</ele>
        <time>2016-04-22T11:31:50Z</time>
      </trkpt>
      <trkpt lat="45.72787" lon="4.05368">
        <ele>364</ele>
        <time>2016-04-22T11:32:20Z</time>
      </trkpt>
      <trkpt lat="45.72757" lon="4.05394">
        <ele>365</ele>
        <time>2016-04-22T11:32:50Z</time>
      </trkpt>
      <trkpt lat="45.72721" lon="4.05418">
        <ele>365</ele>
        <time>2016-04-22T11:33:23Z</time>
      </trkpt>
      <trkpt lat="45.7269" lon="4.05442">
        <ele>366</ele>
        <time>2016-04-22T11:33:55Z</time>
      </trkpt>
      <trkpt lat="45.72686" lon="4.05447">
        <ele>366</ele>
        <time>2016-04-22T11:34:00Z</time>
      </trkpt>
      <trkpt lat="45.72677" lon="4.05454">
        <ele>366</ele>
        <time>2016-04-22T11:34:09Z</time>
      </trkpt>
      <trkpt lat="45.72645" lon="4.05475">
        <ele>366</ele>
        <time>2016-04-22T11:34:42Z</time>
      </trkpt>
      <trkpt lat="45.72612" lon="4.05495">
        <ele>367</ele>
        <time>2016-04-22T11:35:14Z</time>
      </trkpt>
      <trkpt lat="45.7258" lon="4.05514">
        <ele>369</ele>
        <time>2016-04-22T11:35:47Z</time>
      </trkpt>
      <trkpt lat="45.72547" lon="4.05535">
        <ele>370</ele>
        <time>2016-04-22T11:36:18Z</time>
      </trkpt>
      <trkpt lat="45.72528" lon="4.05555">
        <ele>371</ele>
        <time>2016-04-22T11:36:38Z</time>
      </trkpt>
      <trkpt lat="45.72507" lon="4.05578">
        <ele>369</ele>
        <time>2016-04-22T11:36:58Z</time>
      </trkpt>
      <trkpt lat="45.72502" lon="4.05582">
        <ele>370</ele>
        <time>2016-04-22T11:37:02Z</time>
      </trkpt>
      <trkpt lat="45.72499" lon="4.05586">
        <ele>371</ele>
        <time>2016-04-22T11:37:06Z</time>
      </trkpt>
      <trkpt lat="45.72484" lon="4.05601">
        <ele>372</ele>
        <time>2016-04-22T11:37:22Z</time>
      </trkpt>
      <trkpt lat="45.72449" lon="4.0562">
        <ele>371</ele>
        <time>2016-04-22T11:37:55Z</time>
      </trkpt>
      <trkpt lat="45.72444" lon="4.05623">
        <ele>371</ele>
        <time>2016-04-22T11:37:59Z</time>
      </trkpt>
      <trkpt lat="45.72441" lon="4.05628">
        <ele>371</ele>
        <time>2016-04-22T11:38:04Z</time>
      </trkpt>
      <trkpt lat="45.72437" lon="4.05631">
        <ele>371</ele>
        <time>2016-04-22T11:38:09Z</time>
      </trkpt>
      <trkpt lat="45.72422" lon="4.05633">
        <ele>371</ele>
        <time>2016-04-22T11:38:21Z</time>
      </trkpt>
      <trkpt lat="45.72417" lon="4.05632">
        <ele>372</ele>
        <time>2016-04-22T11:38:26Z</time>
      </trkpt>
      <trkpt lat="45.72393" lon="4.0565">
        <ele>372</ele>
        <time>2016-04-22T11:38:45Z</time>
      </trkpt>
      <trkpt lat="45.72372" lon="4.05682">
        <ele>372</ele>
        <time>2016-04-22T11:39:08Z</time>
      </trkpt>
      <trkpt lat="45.72361" lon="4.05698">
        <ele>371</ele>
        <time>2016-04-22T11:39:20Z</time>
      </trkpt>
      <trkpt lat="45.72331" lon="4.05727">
        <ele>371</ele>
        <time>2016-04-22T11:39:51Z</time>
      </trkpt>
      <trkpt lat="45.72322" lon="4.05732">
        <ele>371</ele>
        <time>2016-04-22T11:40:00Z</time>
      </trkpt>
      <trkpt lat="45.72316" lon="4.05731">
        <ele>371</ele>
        <time>2016-04-22T11:40:05Z</time>
      </trkpt>
      <trkpt lat="45.72312" lon="4.05734">
        <ele>371</ele>
        <time>2016-04-22T11:40:10Z</time>
      </trkpt>
      <trkpt lat="45.72308" lon="4.0574">
        <ele>371</ele>
        <time>2016-04-22T11:40:15Z</time>
      </trkpt>
      <trkpt lat="45.72289" lon="4.05749">
        <ele>371</ele>
        <time>2016-04-22T11:40:33Z</time>
      </trkpt>
      <trkpt lat="45.72284" lon="4.05752">
        <ele>372</ele>
        <time>2016-04-22T11:40:37Z</time>
      </trkpt>
      <trkpt lat="45.72281" lon="4.05755">
        <ele>372</ele>
        <time>2016-04-22T11:40:41Z</time>
      </trkpt>
      <trkpt lat="45.72272" lon="4.05763">
        <ele>366</ele>
        <time>2016-04-22T11:40:55Z</time>
      </trkpt>
      <trkpt lat="45.72259" lon="4.05775">
        <ele>372</ele>
        <time>2016-04-22T11:41:07Z</time>
      </trkpt>
      <trkpt lat="45.72252" lon="4.05785">
        <ele>373</ele>
        <time>2016-04-22T11:41:16Z</time>
      </trkpt>
      <trkpt lat="45.72244" lon="4.05793">
        <ele>373</ele>
        <time>2016-04-22T11:41:24Z</time>
      </trkpt>
      <trkpt lat="45.72237" lon="4.05804">
        <ele>369</ele>
        <time>2016-04-22T11:41:34Z</time>
      </trkpt>
      <trkpt lat="45.72234" lon="4.05809">
        <ele>370</ele>
        <time>2016-04-22T11:41:39Z</time>
      </trkpt>
      <trkpt lat="45.72227" lon="4.0582">
        <ele>374</ele>
        <time>2016-04-22T11:41:47Z</time>
      </trkpt>
      <trkpt lat="45.72227" lon="4.05827">
        <ele>375</ele>
        <time>2016-04-22T11:41:51Z</time>
      </trkpt>
      <trkpt lat="45.72224" lon="4.05833">
        <ele>375</ele>
        <time>2016-04-22T11:41:55Z</time>
      </trkpt>
      <trkpt lat="45.72221" lon="4.05838">
        <ele>376</ele>
        <time>2016-04-22T11:41:59Z</time>
      </trkpt>
      <trkpt lat="45.72217" lon="4.05844">
        <ele>376</ele>
        <time>2016-04-22T11:42:04Z</time>
      </trkpt>
      <trkpt lat="45.72213" lon="4.0585">
        <ele>376</ele>
        <time>2016-04-22T11:42:09Z</time>
      </trkpt>
      <trkpt lat="45.72192" lon="4.05889">
        <ele>371</ele>
        <time>2016-04-22T11:42:41Z</time>
      </trkpt>
      <trkpt lat="45.72174" lon="4.05909">
        <ele>370</ele>
        <time>2016-04-22T11:43:04Z</time>
      </trkpt>
      <trkpt lat="45.72169" lon="4.05913">
        <ele>371</ele>
        <time>2016-04-22T11:43:27Z</time>
      </trkpt>
      <trkpt lat="45.72165" lon="4.05917">
        <ele>371</ele>
        <time>2016-04-22T11:43:32Z</time>
      </trkpt>
      <trkpt lat="45.72153" lon="4.05929">
        <ele>371</ele>
        <time>2016-04-22T11:43:45Z</time>
      </trkpt>
      <trkpt lat="45.72138" lon="4.05939">
        <ele>370</ele>
        <time>2016-04-22T11:43:59Z</time>
      </trkpt>
      <trkpt lat="45.72106" lon="4.05957">
        <ele>370</ele>
        <time>2016-04-22T11:44:30Z</time>
      </trkpt>
      <trkpt lat="45.72076" lon="4.05983">
        <ele>371</ele>
        <time>2016-04-22T11:45:01Z</time>
      </trkpt>
      <trkpt lat="45.72072" lon="4.05988">
        <ele>371</ele>
        <time>2016-04-22T11:45:05Z</time>
      </trkpt>
      <trkpt lat="45.72069" lon="4.05994">
        <ele>372</ele>
        <time>2016-04-22T11:45:10Z</time>
      </trkpt>
      <trkpt lat="45.72062" lon="4.06014">
        <ele>373</ele>
        <time>2016-04-22T11:45:24Z</time>
      </trkpt>
      <trkpt lat="45.72062" lon="4.06027">
        <ele>372</ele>
        <time>2016-04-22T11:45:32Z</time>
      </trkpt>
      <trkpt lat="45.72062" lon="4.06034">
        <ele>373</ele>
        <time>2016-04-22T11:45:36Z</time>
      </trkpt>
      <trkpt lat="45.72063" lon="4.06047">
        <ele>373</ele>
        <time>2016-04-22T11:45:44Z</time>
      </trkpt>
      <trkpt lat="45.72065" lon="4.06062">
        <ele>373</ele>
        <time>2016-04-22T11:45:52Z</time>
      </trkpt>
      <trkpt lat="45.72066" lon="4.0607">
        <ele>373</ele>
        <time>2016-04-22T11:45:57Z</time>
      </trkpt>
      <trkpt lat="45.72067" lon="4.06121">
        <ele>373</ele>
        <time>2016-04-22T11:46:31Z</time>
      </trkpt>
      <trkpt lat="45.72051" lon="4.06171">
        <ele>374</ele>
        <time>2016-04-22T11:47:04Z</time>
      </trkpt>
      <trkpt lat="45.72045" lon="4.06183">
        <ele>375</ele>
        <time>2016-04-22T11:47:14Z</time>
      </trkpt>
      <trkpt lat="45.72045" lon="4.06187">
        <ele>374</ele>
        <time>2016-04-22T11:47:36Z</time>
      </trkpt>
      <trkpt lat="45.72042" lon="4.06192">
        <ele>374</ele>
        <time>2016-04-22T11:47:40Z</time>
      </trkpt>
      <trkpt lat="45.72039" lon="4.06199">
        <ele>374</ele>
        <time>2016-04-22T11:47:45Z</time>
      </trkpt>
      <trkpt lat="45.72025" lon="4.06243">
        <ele>374</ele>
        <time>2016-04-22T11:48:14Z</time>
      </trkpt>
      <trkpt lat="45.72014" lon="4.06265">
        <ele>374</ele>
        <time>2016-04-22T11:48:31Z</time>
      </trkpt>
      <trkpt lat="45.7201" lon="4.06271">
        <ele>374</ele>
        <time>2016-04-22T11:48:36Z</time>
      </trkpt>
      <trkpt lat="45.72001" lon="4.06288">
        <ele>377</ele>
        <time>2016-04-22T11:48:50Z</time>
      </trkpt>
      <trkpt lat="45.71998" lon="4.06294">
        <ele>377</ele>
        <time>2016-04-22T11:48:54Z</time>
      </trkpt>
      <trkpt lat="45.71995" lon="4.06307">
        <ele>376</ele>
        <time>2016-04-22T11:49:02Z</time>
      </trkpt>
      <trkpt lat="45.72001" lon="4.06327">
        <ele>375</ele>
        <time>2016-04-22T11:49:14Z</time>
      </trkpt>
      <trkpt lat="45.7203" lon="4.06353">
        <ele>376</ele>
        <time>2016-04-22T11:49:44Z</time>
      </trkpt>
      <trkpt lat="45.72042" lon="4.06364">
        <ele>376</ele>
        <time>2016-04-22T11:49:57Z</time>
      </trkpt>
      <trkpt lat="45.7207" lon="4.06394">
        <ele>375</ele>
        <time>2016-04-22T11:50:27Z</time>
      </trkpt>
      <trkpt lat="45.72064" lon="4.06443">
        <ele>372</ele>
        <time>2016-04-22T11:51:00Z</time>
      </trkpt>
      <trkpt lat="45.72063" lon="4.06492">
        <ele>369</ele>
        <time>2016-04-22T11:51:30Z</time>
      </trkpt>
      <trkpt lat="45.72053" lon="4.06538">
        <ele>368</ele>
        <time>2016-04-22T11:52:04Z</time>
      </trkpt>
      <trkpt lat="45.7204" lon="4.06577">
        <ele>365</ele>
        <time>2016-04-22T11:52:35Z</time>
      </trkpt>
      <trkpt lat="45.72041" lon="4.06583">
        <ele>365</ele>
        <time>2016-04-22T11:52:41Z</time>
      </trkpt>
      <trkpt lat="45.72038" lon="4.06589">
        <ele>365</ele>
        <time>2016-04-22T11:52:48Z</time>
      </trkpt>
      <trkpt lat="45.72034" lon="4.0659">
        <ele>366</ele>
        <time>2016-04-22T11:53:56Z</time>
      </trkpt>
      <trkpt lat="45.7203" lon="4.06591">
        <ele>366</ele>
        <time>2016-04-22T11:54:05Z</time>
      </trkpt>
      <trkpt lat="45.72021" lon="4.06597">
        <ele>365</ele>
        <time>2016-04-22T11:54:21Z</time>
      </trkpt>
      <trkpt lat="45.72009" lon="4.06611">
        <ele>366</ele>
        <time>2016-04-22T11:54:34Z</time>
      </trkpt>
      <trkpt lat="45.71987" lon="4.06651">
        <ele>371</ele>
        <time>2016-04-22T11:55:09Z</time>
      </trkpt>
      <trkpt lat="45.71984" lon="4.06649">
        <ele>371</ele>
        <time>2016-04-22T11:55:16Z</time>
      </trkpt>
      <trkpt lat="45.71979" lon="4.06649">
        <ele>372</ele>
        <time>2016-04-22T11:55:39Z</time>
      </trkpt>
      <trkpt lat="45.71974" lon="4.06646">
        <ele>372</ele>
        <time>2016-04-22T11:55:44Z</time>
      </trkpt>
      <trkpt lat="45.7196" lon="4.06639">
        <ele>374</ele>
        <time>2016-04-22T11:55:59Z</time>
      </trkpt>
      <trkpt lat="45.7195" lon="4.06636">
        <ele>373</ele>
        <time>2016-04-22T11:56:08Z</time>
      </trkpt>
      <trkpt lat="45.71931" lon="4.06626">
        <ele>374</ele>
        <time>2016-04-22T11:56:28Z</time>
      </trkpt>
      <trkpt lat="45.7191" lon="4.0661">
        <ele>377</ele>
        <time>2016-04-22T11:57:00Z</time>
      </trkpt>
      <trkpt lat="45.71902" lon="4.06604">
        <ele>377</ele>
        <time>2016-04-22T11:57:08Z</time>
      </trkpt>
      <trkpt lat="45.71867" lon="4.06583">
        <ele>380</ele>
        <time>2016-04-22T11:57:41Z</time>
      </trkpt>
      <trkpt lat="45.71836" lon="4.06561">
        <ele>384</ele>
        <time>2016-04-22T11:58:15Z</time>
      </trkpt>
      <trkpt lat="45.71812" lon="4.06555">
        <ele>393</ele>
        <time>2016-04-22T11:58:49Z</time>
      </trkpt>
      <trkpt lat="45.71807" lon="4.06555">
        <ele>393</ele>
        <time>2016-04-22T11:58:54Z</time>
      </trkpt>
      <trkpt lat="45.71785" lon="4.06571">
        <ele>399</ele>
        <time>2016-04-22T11:59:26Z</time>
      </trkpt>
      <trkpt lat="45.71782" lon="4.06571">
        <ele>400</ele>
        <time>2016-04-22T11:59:32Z</time>
      </trkpt>
      <trkpt lat="45.71779" lon="4.06574">
        <ele>405</ele>
        <time>2016-04-22T12:02:00Z</time>
      </trkpt>
      <trkpt lat="45.71777" lon="4.0658">
        <ele>405</ele>
        <time>2016-04-22T12:02:06Z</time>
      </trkpt>
      <trkpt lat="45.71757" lon="4.06617">
        <ele>409</ele>
        <time>2016-04-22T12:02:41Z</time>
      </trkpt>
      <trkpt lat="45.71761" lon="4.06615">
        <ele>409</ele>
        <time>2016-04-22T12:02:54Z</time>
      </trkpt>
      <trkpt lat="45.71764" lon="4.06608">
        <ele>409</ele>
        <time>2016-04-22T12:03:01Z</time>
      </trkpt>
      <trkpt lat="45.71768" lon="4.06604">
        <ele>409</ele>
        <time>2016-04-22T12:03:07Z</time>
      </trkpt>
      <trkpt lat="45.71773" lon="4.06603">
        <ele>410</ele>
        <time>2016-04-22T12:03:13Z</time>
      </trkpt>
      <trkpt lat="45.71777" lon="4.066">
        <ele>410</ele>
        <time>2016-04-22T12:03:18Z</time>
      </trkpt>
      <trkpt lat="45.71779" lon="4.06596">
        <ele>411</ele>
        <time>2016-04-22T12:03:27Z</time>
      </trkpt>
      <trkpt lat="45.7178" lon="4.06606">
        <ele>411</ele>
        <time>2016-04-22T12:03:50Z</time>
      </trkpt>
      <trkpt lat="45.71785" lon="4.06604">
        <ele>412</ele>
        <time>2016-04-22T12:03:58Z</time>
      </trkpt>
      <trkpt lat="45.718" lon="4.06601">
        <ele>412</ele>
        <time>2016-04-22T12:04:13Z</time>
      </trkpt>
      <trkpt lat="45.71801" lon="4.06605">
        <ele>412</ele>
        <time>2016-04-22T12:05:23Z</time>
      </trkpt>
      <trkpt lat="45.71796" lon="4.06604">
        <ele>412</ele>
        <time>2016-04-22T12:05:29Z</time>
      </trkpt>
      <trkpt lat="45.71783" lon="4.06608">
        <ele>414</ele>
        <time>2016-04-22T12:05:48Z</time>
      </trkpt>
      <trkpt lat="45.7178" lon="4.06616">
        <ele>415</ele>
        <time>2016-04-22T12:06:19Z</time>
      </trkpt>
      <trkpt lat="45.71777" lon="4.06619">
        <ele>412</ele>
        <time>2016-04-22T12:06:32Z</time>
      </trkpt>
      <trkpt lat="45.71777" lon="4.06629">
        <ele>412</ele>
        <time>2016-04-22T12:07:00Z</time>
      </trkpt>
      <trkpt lat="45.71774" lon="4.06637">
        <ele>411</ele>
        <time>2016-04-22T12:07:34Z</time>
      </trkpt>
      <trkpt lat="45.71772" lon="4.06632">
        <ele>414</ele>
        <time>2016-04-22T12:10:17Z</time>
      </trkpt>
      <trkpt lat="45.71762" lon="4.06636">
        <ele>413</ele>
        <time>2016-04-22T12:10:49Z</time>
      </trkpt>
    </trkseg>
  </trk>
</gpx>